Wetterdaten: Dienstag, 18.01.2022
Datum Zeit Temp. Aussen Temp. o. S. Temp +5cm Feuchte Auss Luftdruck Regen Sonnenschein Regendauer Solar Windben Empfang
18.01.2022 00:00 6,4 C 5,6 C 5,0 C 97 % 1037,4 hPa 0,0 l/m 0 min 0 min 0 W/m 6,4 km/h (2 Bft) 100,00 %
18.01.2022 00:02 6,4 C 5,6 C 5,0 C 97 % 1037,5 hPa 0,0 l/m 0 min 0 min 0 W/m 6,4 km/h (2 Bft) 100,00 %
18.01.2022 00:04 6,4 C 5,6 C 5,0 C 97 % 1037,6 hPa 0,0 l/m 0 min 0 min 0 W/m 3,2 km/h (1 Bft) 97,96 %
18.01.2022 00:08 6,4 C 5,6 C 5,0 C 97 % 1037,5 hPa 0,0 l/m 0 min 0 min 0 W/m 6,4 km/h (2 Bft) 97,89 %
18.01.2022 00:10 6,3 C 5,6 C 5,0 C 97 % 1037,6 hPa 0,0 l/m 0 min 0 min 0 W/m 3,2 km/h (1 Bft) 97,87 %
18.01.2022 00:12 6,4 C 5,6 C 5,0 C 97 % 1037,6 hPa 0,0 l/m 0 min 0 min 0 W/m 6,4 km/h (2 Bft) 100,00 %
18.01.2022 00:14 6,4 C 5,6 C 5,0 C 97 % 1037,7 hPa 0,0 l/m 0 min 0 min 0 W/m 3,2 km/h (1 Bft) 95,35 %
18.01.2022 00:16 6,3 C 5,6 C 5,0 C 97 % 1037,7 hPa 0,0 l/m 0 min 0 min 0 W/m 6,4 km/h (2 Bft) 94,00 %
18.01.2022 00:18 6,3 C 5,6 C 5,0 C 97 % 1037,7 hPa 0,0 l/m 0 min 0 min 0 W/m 6,4 km/h (2 Bft) 93,62 %
18.01.2022 00:20 6,3 C 5,6 C 5,0 C 97 % 1037,6 hPa 0,0 l/m 0 min 0 min 0 W/m 6,4 km/h (2 Bft) 95,45 %
18.01.2022 00:22 6,3 C 5,6 C 5,0 C 97 % 1037,6 hPa 0,0 l/m 0 min 0 min 0 W/m 6,4 km/h (2 Bft) 94,00 %
18.01.2022 00:24 6,3 C 5,6 C 5,0 C 97 % 1037,6 hPa 0,0 l/m 0 min 0 min 0 W/m 6,4 km/h (2 Bft) 95,74 %
18.01.2022 00:26 6,3 C 5,6 C 5,0 C 97 % 1037,6 hPa 0,0 l/m 0 min 0 min 0 W/m 6,4 km/h (2 Bft) 95,35 %
18.01.2022 00:28 6,3 C 5,6 C 5,0 C 97 % 1037,7 hPa 0,0 l/m 0 min 0 min 0 W/m 6,4 km/h (2 Bft) 96,00 %
18.01.2022 00:30 6,3 C 5,6 C 5,0 C 97 % 1037,7 hPa 0,0 l/m 0 min 0 min 0 W/m 3,2 km/h (1 Bft) 95,74 %
18.01.2022 00:32 6,3 C 5,6 C 5,0 C 97 % 1037,7 hPa 0,0 l/m 0 min 0 min 0 W/m 3,2 km/h (1 Bft) 95,45 %
18.01.2022 00:34 6,3 C 5,6 C 5,0 C 97 % 1037,8 hPa 0,0 l/m 0 min 0 min 0 W/m 3,2 km/h (1 Bft) 92,00 %
18.01.2022 00:36 6,3 C 5,6 C 5,0 C 97 % 1037,8 hPa 0,0 l/m 0 min 0 min 0 W/m 3,2 km/h (1 Bft) 95,65 %
18.01.2022 00:38 6,3 C 5,6 C 5,0 C 97 % 1037,8 hPa 0,0 l/m 0 min 0 min 0 W/m 6,4 km/h (2 Bft) 95,74 %
18.01.2022 00:40 6,3 C 5,6 C 5,0 C 97 % 1037,8 hPa 0,0 l/m 0 min 0 min 0 W/m 6,4 km/h (2 Bft) 95,45 %
18.01.2022 00:42 6,3 C 5,6 C 5,0 C 97 % 1037,7 hPa 0,0 l/m 0 min 0 min 0 W/m 9,7 km/h (2 Bft) 96,00 %
18.01.2022 00:44 6,3 C 5,6 C 5,0 C 97 % 1037,7 hPa 0,0 l/m 0 min 0 min 0 W/m 6,4 km/h (2 Bft) 95,74 %
18.01.2022 00:46 6,3 C 5,6 C 5,0 C 97 % 1037,7 hPa 0,0 l/m 0 min 0 min 0 W/m 6,4 km/h (2 Bft) 95,45 %
18.01.2022 00:48 6,3 C 5,6 C 5,0 C 97 % 1037,8 hPa 0,0 l/m 0 min 0 min 0 W/m 9,7 km/h (2 Bft) 95,92 %
18.01.2022 00:50 6,3 C 5,6 C 5,0 C 97 % 1037,8 hPa 0,0 l/m 0 min 0 min 0 W/m 12,9 km/h (3 Bft) 94,34 %
18.01.2022 00:52 6,3 C 5,6 C 5,0 C 97 % 1037,8 hPa 0,0 l/m 0 min 0 min 0 W/m 9,7 km/h (2 Bft) 97,37 %
18.01.2022 00:54 6,3 C 5,6 C 5,0 C 97 % 1037,7 hPa 0,0 l/m 0 min 0 min 0 W/m 6,4 km/h (2 Bft) 98,00 %
18.01.2022 00:56 6,3 C 5,6 C 5,0 C 97 % 1037,7 hPa 0,0 l/m 0 min 0 min 0 W/m 6,4 km/h (2 Bft) 97,87 %
18.01.2022 00:58 6,4 C 5,6 C 5,0 C 97 % 1037,8 hPa 0,0 l/m 0 min 0 min 0 W/m 6,4 km/h (2 Bft) 94,74 %
18.01.2022 01:00 6,4 C 5,6 C 5,0 C 97 % 1037,8 hPa 0,0 l/m 0 min 0 min 0 W/m 6,4 km/h (2 Bft) 98,11 %
18.01.2022 01:02 6,4 C 5,6 C 5,0 C 97 % 1037,8 hPa 0,0 l/m 0 min 0 min 0 W/m 9,7 km/h (2 Bft) 97,67 %
18.01.2022 01:04 6,4 C 5,6 C 5,0 C 97 % 1037,8 hPa 0,0 l/m 0 min 0 min 0 W/m 3,2 km/h (1 Bft) 100,00 %
18.01.2022 01:06 6,4 C 5,6 C 5,0 C 97 % 1037,8 hPa 0,0 l/m 0 min 0 min 0 W/m 6,4 km/h (2 Bft) 98,00 %
18.01.2022 01:08 6,4 C 5,6 C 5,0 C 97 % 1037,8 hPa 0,0 l/m 0 min 0 min 0 W/m 6,4 km/h (2 Bft) 97,87 %
18.01.2022 01:10 6,4 C 5,6 C 5,0 C 97 % 1037,8 hPa 0,0 l/m 0 min 0 min 0 W/m 6,4 km/h (2 Bft) 100,00 %
18.01.2022 01:12 6,4 C 5,6 C 5,0 C 97 % 1037,8 hPa 0,0 l/m 0 min 0 min 0 W/m 6,4 km/h (2 Bft) 100,00 %
18.01.2022 01:14 6,4 C 5,6 C 5,0 C 97 % 1037,8 hPa 0,0 l/m 0 min 0 min 0 W/m 6,4 km/h (2 Bft) 100,00 %
18.01.2022 01:16 6,4 C 5,6 C 5,0 C 97 % 1037,7 hPa 0,0 l/m 0 min 0 min 0 W/m 3,2 km/h (1 Bft) 100,00 %
18.01.2022 01:18 6,3 C 5,6 C 5,0 C 97 % 1037,8 hPa 0,0 l/m 0 min 0 min 0 W/m 9,7 km/h (2 Bft) 94,00 %
18.01.2022 01:20 6,3 C 5,6 C 5,0 C 97 % 1037,8 hPa 0,0 l/m 0 min 0 min 0 W/m 12,9 km/h (3 Bft) 97,87 %
18.01.2022 01:22 6,4 C 5,6 C 5,0 C 97 % 1037,8 hPa 0,0 l/m 0 min 0 min 0 W/m 3,2 km/h (1 Bft) 100,00 %
18.01.2022 01:24 6,3 C 5,6 C 5,0 C 97 % 1037,8 hPa 0,0 l/m 0 min 0 min 0 W/m 6,4 km/h (2 Bft) 100,00 %
18.01.2022 01:26 6,3 C 5,6 C 5,0 C 97 % 1037,9 hPa 0,0 l/m 0 min 0 min 0 W/m 9,7 km/h (2 Bft) 97,87 %
18.01.2022 01:28 6,3 C 5,6 C 5,0 C 97 % 1037,9 hPa 0,0 l/m 0 min 0 min 0 W/m 6,4 km/h (2 Bft) 95,45 %
18.01.2022 01:30 6,3 C 5,6 C 5,0 C 97 % 1037,8 hPa 0,0 l/m 0 min 0 min 0 W/m 6,4 km/h (2 Bft) 98,00 %
18.01.2022 01:32 6,3 C 5,6 C 5,0 C 97 % 1037,8 hPa 0,0 l/m 0 min 0 min 0 W/m 3,2 km/h (1 Bft) 98,11 %
18.01.2022 01:34 6,3 C 5,6 C 5,0 C 97 % 1037,9 hPa 0,0 l/m 0 min 0 min 0 W/m 6,4 km/h (2 Bft) 97,37 %
18.01.2022 01:36 6,3 C 5,6 C 5,0 C 97 % 1037,9 hPa 0,0 l/m 0 min 0 min 0 W/m 3,2 km/h (1 Bft) 97,96 %
18.01.2022 01:38 6,3 C 5,6 C 5,0 C 97 % 1037,9 hPa 0,0 l/m 0 min 0 min 0 W/m 3,2 km/h (1 Bft) 97,87 %
18.01.2022 01:40 6,3 C 5,6 C 5,0 C 97 % 1037,9 hPa 0,0 l/m 0 min 0 min 0 W/m 3,2 km/h (1 Bft) 95,74 %
18.01.2022 01:42 6,3 C 5,6 C 5,0 C 97 % 1037,9 hPa 0,0 l/m 0 min 0 min 0 W/m 6,4 km/h (2 Bft) 97,73 %
18.01.2022 01:44 6,3 C 5,6 C 5,0 C 97 % 1037,9 hPa 0,0 l/m 0 min 0 min 0 W/m 3,2 km/h (1 Bft) 98,00 %
18.01.2022 01:46 6,3 C 5,6 C 5,0 C 97 % 1037,9 hPa 0,0 l/m 0 min 0 min 0 W/m 3,2 km/h (1 Bft) 97,83 %
18.01.2022 01:48 6,3 C 5,6 C 5,0 C 97 % 1038,0 hPa 0,0 l/m 0 min 0 min 0 W/m 3,2 km/h (1 Bft) 100,00 %
18.01.2022 01:50 6,3 C 5,6 C 5,0 C 97 % 1038,0 hPa 0,0 l/m 0 min 0 min 0 W/m 3,2 km/h (1 Bft) 100,00 %
18.01.2022 01:52 6,3 C 5,6 C 5,0 C 97 % 1038,0 hPa 0,0 l/m 0 min 0 min 0 W/m 3,2 km/h (1 Bft) 100,00 %
18.01.2022 01:54 6,3 C 5,6 C 5,0 C 97 % 1038,0 hPa 0,0 l/m 0 min 0 min 0 W/m 3,2 km/h (1 Bft) 100,00 %
18.01.2022 01:56 6,3 C 5,6 C 5,0 C 97 % 1038,0 hPa 0,0 l/m 0 min 0 min 0 W/m 3,2 km/h (1 Bft) 90,91 %
18.01.2022 01:58 6,3 C 5,6 C 5,0 C 97 % 1038,0 hPa 0,0 l/m 0 min 0 min 0 W/m 6,4 km/h (2 Bft) 61,22 %
18.01.2022 02:00 6,3 C 5,6 C 5,0 C 97 % 1038,1 hPa 0,0 l/m 0 min 0 min 0 W/m 6,4 km/h (2 Bft) 100,00 %
18.01.2022 02:02 6,3 C 5,6 C 5,0 C 97 % 1038,1 hPa 0,0 l/m 0 min 0 min 0 W/m 6,4 km/h (2 Bft) 100,00 %
18.01.2022 02:04 6,3 C 5,6 C 5,0 C 97 % 1038,1 hPa 0,0 l/m 0 min 0 min 0 W/m 6,4 km/h (2 Bft) 100,00 %
18.01.2022 02:06 6,3 C 5,6 C 5,0 C 97 % 1038,1 hPa 0,0 l/m 0 min 0 min 0 W/m 3,2 km/h (1 Bft) 100,00 %
18.01.2022 02:08 6,3 C 5,6 C 5,0 C 97 % 1038,1 hPa 0,0 l/m 0 min 0 min 0 W/m 3,2 km/h (1 Bft) 100,00 %
18.01.2022 02:10 6,3 C 5,6 C 5,0 C 97 % 1038,1 hPa 0,0 l/m 0 min 0 min 0 W/m 3,2 km/h (1 Bft) 98,18 %
18.01.2022 02:12 6,3 C 5,6 C 5,0 C 97 % 1038,1 hPa 0,0 l/m 0 min 0 min 0 W/m 3,2 km/h (1 Bft) 97,37 %
18.01.2022 02:14 6,3 C 5,6 C 5,0 C 97 % 1038,1 hPa 0,0 l/m 0 min 0 min 0 W/m 3,2 km/h (1 Bft) 100,00 %
18.01.2022 02:16 6,3 C 5,6 C 5,0 C 97 % 1038,1 hPa 0,0 l/m 0 min 0 min 0 W/m 6,4 km/h (2 Bft) 100,00 %
18.01.2022 02:18 6,3 C 5,6 C 5,0 C 97 % 1038,1 hPa 0,0 l/m 0 min 0 min 0 W/m 6,4 km/h (2 Bft) 100,00 %
18.01.2022 02:20 6,3 C 5,6 C 5,0 C 97 % 1038,1 hPa 0,0 l/m 0 min 0 min 0 W/m 6,4 km/h (2 Bft) 97,87 %
18.01.2022 02:22 6,3 C 5,6 C 5,0 C 97 % 1038,2 hPa 0,0 l/m 0 min 0 min 0 W/m 3,2 km/h (1 Bft) 98,08 %
18.01.2022 02:24 6,3 C 5,6 C 5,0 C 97 % 1038,1 hPa 0,0 l/m 0 min 0 min 0 W/m 9,7 km/h (2 Bft) 100,00 %
18.01.2022 02:26 6,3 C 5,6 C 5,0 C 97 % 1038,2 hPa 0,0 l/m 0 min 0 min 0 W/m 6,4 km/h (2 Bft) 100,00 %
18.01.2022 02:28 6,3 C 5,6 C 5,0 C 97 % 1038,2 hPa 0,0 l/m 0 min 0 min 0 W/m 6,4 km/h (2 Bft) 100,00 %
18.01.2022 02:30 6,3 C 5,6 C 5,0 C 97 % 1038,2 hPa 0,0 l/m 0 min 0 min 0 W/m 6,4 km/h (2 Bft) 96,43 %
18.01.2022 02:32 6,2 C 5,6 C 5,0 C 97 % 1038,3 hPa 0,0 l/m 0 min 0 min 0 W/m 3,2 km/h (1 Bft) 100,00 %
18.01.2022 02:34 6,2 C 5,6 C 5,0 C 97 % 1038,3 hPa 0,0 l/m 0 min 0 min 0 W/m 3,2 km/h (1 Bft) 100,00 %
18.01.2022 02:36 6,2 C 5,6 C 5,0 C 97 % 1038,2 hPa 0,0 l/m 0 min 0 min 0 W/m 3,2 km/h (1 Bft) 100,00 %
18.01.2022 02:38 6,2 C 5,6 C 5,0 C 97 % 1038,2 hPa 0,0 l/m 0 min 0 min 0 W/m 6,4 km/h (2 Bft) 100,00 %
18.01.2022 02:40 6,2 C 5,6 C 5,0 C 97 % 1038,2 hPa 0,0 l/m 0 min 0 min 0 W/m 3,2 km/h (1 Bft) 98,00 %
18.01.2022 02:42 6,2 C 5,6 C 5,0 C 97 % 1038,1 hPa 0,0 l/m 0 min 0 min 0 W/m 3,2 km/h (1 Bft) 97,37 %
18.01.2022 02:44 6,2 C 5,6 C 5,0 C 97 % 1038,2 hPa 0,0 l/m 0 min 0 min 0 W/m 3,2 km/h (1 Bft) 97,87 %
18.01.2022 02:46 6,2 C 5,6 C 5,0 C 97 % 1038,2 hPa 0,0 l/m 0 min 0 min 0 W/m 3,2 km/h (1 Bft) 98,18 %
18.01.2022 02:48 6,2 C 5,6 C 5,0 C 97 % 1038,2 hPa 0,0 l/m 0 min 0 min 0 W/m 3,2 km/h (1 Bft) 97,37 %
18.01.2022 02:50 6,2 C 5,6 C 5,0 C 97 % 1038,2 hPa 0,0 l/m 0 min 0 min 0 W/m 3,2 km/h (1 Bft) 98,00 %
18.01.2022 02:52 6,2 C 5,6 C 5,0 C 97 % 1038,2 hPa 0,0 l/m 0 min 0 min 0 W/m 3,2 km/h (1 Bft) 97,87 %
18.01.2022 02:54 6,2 C 5,6 C 5,0 C 97 % 1038,2 hPa 0,0 l/m 0 min 0 min 0 W/m 3,2 km/h (1 Bft) 97,73 %
18.01.2022 02:56 6,2 C 5,6 C 5,0 C 97 % 1038,2 hPa 0,0 l/m 0 min 0 min 0 W/m 3,2 km/h (1 Bft) 95,65 %
18.01.2022 02:58 6,2 C 5,6 C 5,0 C 97 % 1038,2 hPa 0,0 l/m 0 min 0 min 0 W/m 3,2 km/h (1 Bft) 98,00 %
18.01.2022 03:00 6,2 C 5,6 C 5,0 C 97 % 1038,2 hPa 0,0 l/m 0 min 0 min 0 W/m 6,4 km/h (2 Bft) 98,00 %
18.01.2022 03:02 6,2 C 5,6 C 5,0 C 97 % 1038,2 hPa 0,0 l/m 0 min 0 min 0 W/m 3,2 km/h (1 Bft) 97,37 %
18.01.2022 03:04 6,2 C 5,6 C 5,0 C 97 % 1038,2 hPa 0,0 l/m 0 min 0 min 0 W/m 3,2 km/h (1 Bft) 98,00 %
18.01.2022 03:06 6,2 C 5,6 C 5,0 C 97 % 1038,2 hPa 0,0 l/m 0 min 0 min 0 W/m 3,2 km/h (1 Bft) 96,23 %
18.01.2022 03:08 6,1 C 5,6 C 5,0 C 97 % 1038,2 hPa 0,0 l/m 0 min 0 min 0 W/m 6,4 km/h (2 Bft) 97,83 %
18.01.2022 03:10 6,1 C 5,6 C 5,0 C 97 % 1038,2 hPa 0,0 l/m 0 min 0 min 0 W/m 6,4 km/h (2 Bft) 96,00 %
18.01.2022 03:12 6,1 C 5,6 C 5,0 C 97 % 1038,3 hPa 0,0 l/m 0 min 0 min 0 W/m 3,2 km/h (1 Bft) 94,74 %
18.01.2022 03:14 6,1 C 5,6 C 5,0 C 97 % 1038,2 hPa 0,0 l/m 0 min 0 min 0 W/m 3,2 km/h (1 Bft) 94,00 %
18.01.2022 03:16 6,1 C 5,6 C 5,0 C 97 % 1038,3 hPa 0,0 l/m 0 min 0 min 0 W/m 3,2 km/h (1 Bft) 96,00 %
18.01.2022 03:18 6,1 C 5,6 C 5,0 C 97 % 1038,3 hPa 0,0 l/m 0 min 0 min 0 W/m 6,4 km/h (2 Bft) 91,43 %
18.01.2022 03:20 6,1 C 5,6 C 5,0 C 97 % 1038,3 hPa 0,0 l/m 0 min 0 min 0 W/m 3,2 km/h (1 Bft) 94,23 %
18.01.2022 03:22 6,1 C 5,6 C 5,0 C 97 % 1038,3 hPa 0,0 l/m 0 min 0 min 0 W/m 6,4 km/h (2 Bft) 92,00 %
18.01.2022 03:24 6,1 C 5,6 C 5,0 C 97 % 1038,3 hPa 0,0 l/m 0 min 0 min 0 W/m 0,0 km/h (0 Bft) 92,00 %
18.01.2022 03:26 6,1 C 5,6 C 5,0 C 97 % 1038,3 hPa 0,0 l/m 0 min 0 min 0 W/m 3,2 km/h (1 Bft) 94,29 %
18.01.2022 03:28 6,1 C 5,6 C 5,0 C 97 % 1038,2 hPa 0,0 l/m 0 min 0 min 0 W/m 3,2 km/h (1 Bft) 94,64 %
18.01.2022 03:30 6,1 C 5,6 C 5,0 C 97 % 1038,2 hPa 0,0 l/m 0 min 0 min 0 W/m 3,2 km/h (1 Bft) 93,88 %
18.01.2022 03:32 6,1 C 5,6 C 5,0 C 97 % 1038,2 hPa 0,0 l/m 0 min 0 min 0 W/m 3,2 km/h (1 Bft) 94,44 %
18.01.2022 03:34 6,1 C 5,6 C 5,0 C 97 % 1038,2 hPa 0,0 l/m 0 min 0 min 0 W/m 0,0 km/h (0 Bft) 94,55 %
18.01.2022 03:36 6,1 C 5,0 C 5,0 C 97 % 1038,2 hPa 0,0 l/m 0 min 0 min 0 W/m 3,2 km/h (1 Bft) 96,00 %
18.01.2022 03:38 6,1 C 5,0 C 5,0 C 97 % 1038,1 hPa 0,0 l/m 0 min 0 min 0 W/m 3,2 km/h (1 Bft) 95,74 %
18.01.2022 03:40 6,1 C 5,0 C 5,0 C 97 % 1038,1 hPa 0,0 l/m 0 min 0 min 0 W/m 3,2 km/h (1 Bft) 97,14 %
18.01.2022 03:42 6,0 C 5,0 C 5,0 C 97 % 1038,1 hPa 0,0 l/m 0 min 0 min 0 W/m 0,0 km/h (0 Bft) 96,36 %
18.01.2022 03:44 6,0 C 5,0 C 5,0 C 97 % 1038,1 hPa 0,0 l/m 0 min 0 min 0 W/m 3,2 km/h (1 Bft) 96,00 %
18.01.2022 03:46 6,0 C 5,0 C 5,0 C 97 % 1038,1 hPa 0,0 l/m 0 min 0 min 0 W/m 3,2 km/h (1 Bft) 97,56 %
18.01.2022 03:48 6,0 C 5,0 C 5,0 C 97 % 1038,1 hPa 0,0 l/m 0 min 0 min 0 W/m 3,2 km/h (1 Bft) 97,87 %
18.01.2022 03:50 6,0 C 5,0 C 4,4 C 97 % 1038,2 hPa 0,0 l/m 0 min 0 min 0 W/m 0,0 km/h (0 Bft) 98,00 %
18.01.2022 03:52 6,0 C 5,0 C 4,4 C 97 % 1038,1 hPa 0,0 l/m 0 min 0 min 0 W/m 3,2 km/h (1 Bft) 98,00 %
18.01.2022 03:54 5,9 C 5,0 C 4,4 C 97 % 1038,1 hPa 0,0 l/m 0 min 0 min 0 W/m 0,0 km/h (0 Bft) 94,29 %
18.01.2022 03:56 5,9 C 5,0 C 5,0 C 97 % 1038,1 hPa 0,0 l/m 0 min 0 min 0 W/m 0,0 km/h (0 Bft) 98,18 %
18.01.2022 03:58 5,9 C 5,0 C 4,4 C 97 % 1038,1 hPa 0,0 l/m 0 min 0 min 0 W/m 0,0 km/h (0 Bft) 96,00 %
18.01.2022 04:00 5,9 C 5,0 C 5,0 C 97 % 1038,1 hPa 0,0 l/m 0 min 0 min 0 W/m 0,0 km/h (0 Bft) 97,37 %
18.01.2022 04:05 5,9 C 5,0 C 5,0 C 97 % 1038,1 hPa 0,0 l/m 0 min 0 min 0 W/m 0,0 km/h (0 Bft) 100,00 %
18.01.2022 04:06 5,9 C 5,0 C 5,0 C 97 % 1038,1 hPa 0,0 l/m 0 min 0 min 0 W/m 0,0 km/h (0 Bft) 100,00 %
18.01.2022 04:08 5,9 C 5,0 C 4,4 C 97 % 1038,1 hPa 0,0 l/m 0 min 0 min 0 W/m 0,0 km/h (0 Bft) 93,62 %
18.01.2022 04:10 5,9 C 5,0 C 4,4 C 97 % 1038,1 hPa 0,0 l/m 0 min 0 min 0 W/m 0,0 km/h (0 Bft) 97,87 %
18.01.2022 04:12 5,9 C 5,0 C 4,4 C 97 % 1038,1 hPa 0,0 l/m 0 min 0 min 0 W/m 0,0 km/h (0 Bft) 100,00 %
18.01.2022 04:14 5,9 C 5,0 C 5,0 C 97 % 1038,1 hPa 0,0 l/m 0 min 0 min 0 W/m 3,2 km/h (1 Bft) 97,87 %
18.01.2022 04:16 5,9 C 5,0 C 5,0 C 97 % 1038,1 hPa 0,0 l/m 0 min 0 min 0 W/m 3,2 km/h (1 Bft) 100,00 %
18.01.2022 04:18 5,9 C 5,0 C 4,4 C 97 % 1038,1 hPa 0,0 l/m 0 min 0 min 0 W/m 0,0 km/h (0 Bft) 100,00 %
18.01.2022 04:20 5,9 C 5,0 C 4,4 C 97 % 1038,2 hPa 0,0 l/m 0 min 0 min 0 W/m 3,2 km/h (1 Bft) 100,00 %
18.01.2022 04:22 5,9 C 5,0 C 5,0 C 97 % 1038,2 hPa 0,0 l/m 0 min 0 min 0 W/m 3,2 km/h (1 Bft) 100,00 %
18.01.2022 04:24 5,9 C 5,0 C 5,0 C 97 % 1038,2 hPa 0,0 l/m 0 min 0 min 0 W/m 3,2 km/h (1 Bft) 56,52 %
18.01.2022 04:26 5,9 C 5,0 C 5,0 C 97 % 1038,3 hPa 0,0 l/m 0 min 0 min 0 W/m 3,2 km/h (1 Bft) 100,00 %
18.01.2022 04:28 5,9 C 5,0 C 5,0 C 97 % 1038,3 hPa 0,0 l/m 0 min 0 min 0 W/m 3,2 km/h (1 Bft) 100,00 %
18.01.2022 04:30 5,9 C 5,0 C 5,0 C 97 % 1038,3 hPa 0,0 l/m 0 min 0 min 0 W/m 3,2 km/h (1 Bft) 100,00 %
18.01.2022 04:32 5,9 C 5,0 C 5,0 C 97 % 1038,3 hPa 0,0 l/m 0 min 0 min 0 W/m 3,2 km/h (1 Bft) 100,00 %
18.01.2022 04:34 5,9 C 5,0 C 5,0 C 97 % 1038,4 hPa 0,0 l/m 0 min 0 min 0 W/m 6,4 km/h (2 Bft) 100,00 %
18.01.2022 04:36 5,9 C 5,0 C 5,0 C 97 % 1038,3 hPa 0,0 l/m 0 min 0 min 0 W/m 3,2 km/h (1 Bft) 100,00 %
18.01.2022 04:38 5,8 C 5,0 C 5,0 C 97 % 1038,4 hPa 0,0 l/m 0 min 0 min 0 W/m 3,2 km/h (1 Bft) 97,87 %
18.01.2022 04:40 5,9 C 5,0 C 4,4 C 97 % 1038,3 hPa 0,0 l/m 0 min 0 min 0 W/m 3,2 km/h (1 Bft) 100,00 %
18.01.2022 04:42 5,8 C 5,0 C 4,4 C 97 % 1038,3 hPa 0,0 l/m 0 min 0 min 0 W/m 6,4 km/h (2 Bft) 97,83 %
18.01.2022 04:44 5,8 C 5,0 C 5,0 C 98 % 1038,3 hPa 0,0 l/m 0 min 0 min 0 W/m 6,4 km/h (2 Bft) 100,00 %
18.01.2022 04:46 5,8 C 5,0 C 5,0 C 98 % 1038,4 hPa 0,0 l/m 0 min 0 min 0 W/m 3,2 km/h (1 Bft) 100,00 %
18.01.2022 04:48 5,8 C 5,0 C 4,4 C 98 % 1038,4 hPa 0,0 l/m 0 min 0 min 0 W/m 3,2 km/h (1 Bft) 100,00 %
18.01.2022 04:50 5,8 C 5,0 C 4,4 C 98 % 1038,4 hPa 0,0 l/m 0 min 0 min 0 W/m 3,2 km/h (1 Bft) 97,87 %
18.01.2022 04:52 5,8 C 5,0 C 4,4 C 98 % 1038,4 hPa 0,0 l/m 0 min 0 min 0 W/m 6,4 km/h (2 Bft) 100,00 %
18.01.2022 04:54 5,8 C 5,0 C 4,4 C 98 % 1038,4 hPa 0,0 l/m 0 min 0 min 0 W/m 6,4 km/h (2 Bft) 100,00 %
18.01.2022 04:56 5,8 C 5,0 C 4,4 C 98 % 1038,4 hPa 0,0 l/m 0 min 0 min 0 W/m 3,2 km/h (1 Bft) 100,00 %
18.01.2022 04:58 5,8 C 5,0 C 5,0 C 98 % 1038,4 hPa 0,0 l/m 0 min 0 min 0 W/m 3,2 km/h (1 Bft) 97,87 %
18.01.2022 05:00 5,8 C 5,0 C 4,4 C 98 % 1038,4 hPa 0,0 l/m 0 min 0 min 0 W/m 0,0 km/h (0 Bft) 100,00 %
18.01.2022 05:02 5,8 C 5,0 C 4,4 C 98 % 1038,4 hPa 0,0 l/m 0 min 0 min 0 W/m 3,2 km/h (1 Bft) 97,87 %
18.01.2022 05:04 5,8 C 5,0 C 4,4 C 98 % 1038,4 hPa 0,0 l/m 0 min 0 min 0 W/m 3,2 km/h (1 Bft) 100,00 %
18.01.2022 05:06 5,8 C 5,0 C 4,4 C 98 % 1038,4 hPa 0,0 l/m 0 min 0 min 0 W/m 3,2 km/h (1 Bft) 100,00 %
18.01.2022 05:08 5,8 C 5,0 C 4,4 C 98 % 1038,4 hPa 0,0 l/m 0 min 0 min 0 W/m 3,2 km/h (1 Bft) 95,74 %
18.01.2022 05:10 5,8 C 5,0 C 4,4 C 98 % 1038,4 hPa 0,0 l/m 0 min 0 min 0 W/m 3,2 km/h (1 Bft) 97,87 %
18.01.2022 05:12 5,8 C 5,0 C 4,4 C 98 % 1038,4 hPa 0,0 l/m 0 min 0 min 0 W/m 3,2 km/h (1 Bft) 97,87 %
18.01.2022 05:14 5,8 C 5,0 C 4,4 C 98 % 1038,4 hPa 0,0 l/m 0 min 0 min 0 W/m 3,2 km/h (1 Bft) 95,74 %
18.01.2022 05:16 5,8 C 5,0 C 4,4 C 98 % 1038,4 hPa 0,0 l/m 0 min 0 min 0 W/m 3,2 km/h (1 Bft) 97,83 %
18.01.2022 05:18 5,8 C 5,0 C 4,4 C 98 % 1038,4 hPa 0,0 l/m 0 min 0 min 0 W/m 3,2 km/h (1 Bft) 93,62 %
18.01.2022 05:20 5,8 C 5,0 C 4,4 C 98 % 1038,4 hPa 0,0 l/m 0 min 0 min 0 W/m 6,4 km/h (2 Bft) 95,74 %
18.01.2022 05:22 5,8 C 5,0 C 4,4 C 98 % 1038,4 hPa 0,0 l/m 0 min 0 min 0 W/m 3,2 km/h (1 Bft) 93,62 %
18.01.2022 05:24 5,8 C 5,0 C 4,4 C 98 % 1038,3 hPa 0,0 l/m 0 min 0 min 0 W/m 3,2 km/h (1 Bft) 93,62 %
18.01.2022 05:26 5,8 C 5,0 C 4,4 C 98 % 1038,3 hPa 0,0 l/m 0 min 0 min 0 W/m 3,2 km/h (1 Bft) 95,74 %
18.01.2022 05:28 5,7 C 5,0 C 4,4 C 98 % 1038,4 hPa 0,0 l/m 0 min 0 min 0 W/m 3,2 km/h (1 Bft) 95,65 %
18.01.2022 05:30 5,7 C 5,0 C 4,4 C 98 % 1038,3 hPa 0,0 l/m 0 min 0 min 0 W/m 3,2 km/h (1 Bft) 95,74 %
18.01.2022 05:32 5,7 C 5,0 C 4,4 C 98 % 1038,4 hPa 0,0 l/m 0 min 0 min 0 W/m 3,2 km/h (1 Bft) 95,74 %
18.01.2022 05:34 5,7 C 5,0 C 4,4 C 98 % 1038,4 hPa 0,0 l/m 0 min 0 min 0 W/m 3,2 km/h (1 Bft) 95,74 %
18.01.2022 05:36 5,7 C 5,0 C 4,4 C 98 % 1038,4 hPa 0,0 l/m 0 min 0 min 0 W/m 3,2 km/h (1 Bft) 95,74 %
18.01.2022 05:38 5,7 C 5,0 C 4,4 C 98 % 1038,4 hPa 0,0 l/m 0 min 0 min 0 W/m 3,2 km/h (1 Bft) 95,74 %
18.01.2022 05:40 5,7 C 5,0 C 4,4 C 98 % 1038,4 hPa 0,0 l/m 0 min 0 min 0 W/m 3,2 km/h (1 Bft) 95,65 %
18.01.2022 05:42 5,7 C 5,0 C 4,4 C 98 % 1038,3 hPa 0,0 l/m 0 min 0 min 0 W/m 3,2 km/h (1 Bft) 97,87 %
18.01.2022 05:44 5,7 C 5,0 C 4,4 C 98 % 1038,3 hPa 0,0 l/m 0 min 0 min 0 W/m 3,2 km/h (1 Bft) 97,87 %
18.01.2022 05:46 5,7 C 5,0 C 4,4 C 98 % 1038,3 hPa 0,0 l/m 0 min 0 min 0 W/m 6,4 km/h (2 Bft) 97,87 %
18.01.2022 05:48 5,7 C 5,0 C 4,4 C 98 % 1038,3 hPa 0,0 l/m 0 min 0 min 0 W/m 3,2 km/h (1 Bft) 97,87 %
18.01.2022 05:50 5,7 C 5,0 C 4,4 C 98 % 1038,3 hPa 0,0 l/m 0 min 0 min 0 W/m 3,2 km/h (1 Bft) 97,87 %
18.01.2022 05:52 5,7 C 5,0 C 4,4 C 98 % 1038,2 hPa 0,0 l/m 0 min 0 min 0 W/m 3,2 km/h (1 Bft) 95,65 %
18.01.2022 05:54 5,7 C 5,0 C 4,4 C 98 % 1038,2 hPa 0,0 l/m 0 min 0 min 0 W/m 3,2 km/h (1 Bft) 100,00 %
18.01.2022 05:56 5,7 C 5,0 C 4,4 C 98 % 1038,2 hPa 0,0 l/m 0 min 0 min 0 W/m 3,2 km/h (1 Bft) 95,74 %
18.01.2022 05:58 5,7 C 5,0 C 4,4 C 98 % 1038,2 hPa 0,0 l/m 0 min 0 min 0 W/m 6,4 km/h (2 Bft) 100,00 %
18.01.2022 06:00 5,7 C 5,0 C 4,4 C 98 % 1038,3 hPa 0,0 l/m 0 min 0 min 0 W/m 6,4 km/h (2 Bft) 100,00 %
18.01.2022 06:02 5,7 C 5,0 C 4,4 C 98 % 1038,3 hPa 0,0 l/m 0 min 0 min 0 W/m 3,2 km/h (1 Bft) 100,00 %
18.01.2022 06:04 5,7 C 5,0 C 4,4 C 98 % 1038,3 hPa 0,0 l/m 0 min 0 min 0 W/m 3,2 km/h (1 Bft) 100,00 %
18.01.2022 06:08 5,7 C 5,0 C 4,4 C 98 % 1038,4 hPa 0,0 l/m 0 min 0 min 0 W/m 3,2 km/h (1 Bft) 100,00 %
18.01.2022 06:10 5,6 C 5,0 C 4,4 C 98 % 1038,4 hPa 0,0 l/m 0 min 0 min 0 W/m 3,2 km/h (1 Bft) 100,00 %
18.01.2022 06:12 5,6 C 5,0 C 4,4 C 98 % 1038,4 hPa 0,0 l/m 0 min 0 min 0 W/m 3,2 km/h (1 Bft) 97,87 %
18.01.2022 06:14 5,6 C 5,0 C 4,4 C 98 % 1038,4 hPa 0,0 l/m 0 min 0 min 0 W/m 6,4 km/h (2 Bft) 97,83 %
18.01.2022 06:16 5,6 C 5,0 C 4,4 C 98 % 1038,3 hPa 0,0 l/m 0 min 0 min 0 W/m 3,2 km/h (1 Bft) 97,87 %
18.01.2022 06:18 5,6 C 5,0 C 4,4 C 98 % 1038,3 hPa 0,0 l/m 0 min 0 min 0 W/m 6,4 km/h (2 Bft) 96,15 %
18.01.2022 06:20 5,6 C 5,0 C 4,4 C 98 % 1038,4 hPa 0,0 l/m 0 min 0 min 0 W/m 3,2 km/h (1 Bft) 97,78 %
18.01.2022 06:22 5,6 C 5,0 C 4,4 C 98 % 1038,4 hPa 0,0 l/m 0 min 0 min 0 W/m 3,2 km/h (1 Bft) 97,87 %
18.01.2022 06:24 5,6 C 5,0 C 4,4 C 98 % 1038,4 hPa 0,0 l/m 0 min 0 min 0 W/m 3,2 km/h (1 Bft) 97,87 %
18.01.2022 06:26 5,6 C 5,0 C 4,4 C 98 % 1038,4 hPa 0,0 l/m 0 min 0 min 0 W/m 3,2 km/h (1 Bft) 95,65 %
18.01.2022 06:28 5,6 C 5,0 C 4,4 C 98 % 1038,5 hPa 0,0 l/m 0 min 0 min 0 W/m 3,2 km/h (1 Bft) 97,87 %
18.01.2022 06:30 5,6 C 5,0 C 4,4 C 98 % 1038,4 hPa 0,0 l/m 0 min 0 min 0 W/m 3,2 km/h (1 Bft) 97,87 %
18.01.2022 06:32 5,6 C 5,0 C 4,4 C 98 % 1038,4 hPa 0,0 l/m 0 min 0 min 0 W/m 3,2 km/h (1 Bft) 95,74 %
18.01.2022 06:34 5,6 C 5,0 C 4,4 C 98 % 1038,5 hPa 0,0 l/m 0 min 0 min 0 W/m 3,2 km/h (1 Bft) 95,74 %
18.01.2022 06:36 5,6 C 5,0 C 4,4 C 98 % 1038,4 hPa 0,0 l/m 0 min 0 min 0 W/m 3,2 km/h (1 Bft) 95,74 %
18.01.2022 06:38 5,6 C 5,0 C 4,4 C 98 % 1038,4 hPa 0,0 l/m 0 min 0 min 0 W/m 0,0 km/h (0 Bft) 97,83 %
18.01.2022 06:40 5,6 C 5,0 C 4,4 C 98 % 1038,4 hPa 0,0 l/m 0 min 0 min 0 W/m 0,0 km/h (0 Bft) 97,87 %
18.01.2022 06:42 5,6 C 5,0 C 4,4 C 98 % 1038,5 hPa 0,0 l/m 0 min 0 min 0 W/m 0,0 km/h (0 Bft) 97,87 %
18.01.2022 06:44 5,6 C 5,0 C 4,4 C 98 % 1038,4 hPa 0,0 l/m 0 min 0 min 0 W/m 0,0 km/h (0 Bft) 42,86 %
18.01.2022 06:46 5,6 C 5,0 C 4,4 C 98 % 1038,5 hPa 0,0 l/m 0 min 0 min 0 W/m 0,0 km/h (0 Bft) 95,74 %
18.01.2022 06:48 5,6 C 5,0 C 4,4 C 98 % 1038,5 hPa 0,0 l/m 0 min 0 min 0 W/m 0,0 km/h (0 Bft) 97,83 %
18.01.2022 06:50 5,5 C 5,0 C 4,4 C 98 % 1038,5 hPa 0,0 l/m 0 min 0 min 0 W/m 0,0 km/h (0 Bft) 97,87 %
18.01.2022 06:52 5,5 C 5,0 C 4,4 C 98 % 1038,5 hPa 0,0 l/m 0 min 0 min 0 W/m 0,0 km/h (0 Bft) 97,87 %
18.01.2022 06:54 5,5 C 5,0 C 4,4 C 98 % 1038,5 hPa 0,0 l/m 0 min 0 min 0 W/m 0,0 km/h (0 Bft) 95,74 %
18.01.2022 06:56 5,5 C 5,0 C 4,4 C 98 % 1038,5 hPa 0,0 l/m 0 min 0 min 0 W/m 0,0 km/h (0 Bft) 97,87 %
18.01.2022 06:58 5,5 C 5,0 C 4,4 C 98 % 1038,5 hPa 0,0 l/m 0 min 0 min 0 W/m 0,0 km/h (0 Bft) 95,74 %
18.01.2022 07:00 5,5 C 5,0 C 4,4 C 98 % 1038,5 hPa 0,0 l/m 0 min 0 min 0 W/m 0,0 km/h (0 Bft) 97,83 %
18.01.2022 07:02 5,5 C 5,0 C 4,4 C 98 % 1038,5 hPa 0,0 l/m 0 min 0 min 0 W/m 0,0 km/h (0 Bft) 97,87 %
18.01.2022 07:04 5,5 C 5,0 C 4,4 C 98 % 1038,5 hPa 0,0 l/m 0 min 0 min 0 W/m 0,0 km/h (0 Bft) 97,87 %
18.01.2022 07:06 5,5 C 5,0 C 4,4 C 98 % 1038,6 hPa 0,0 l/m 0 min 0 min 0 W/m 0,0 km/h (0 Bft) 97,87 %
18.01.2022 07:08 5,5 C 5,0 C 4,4 C 98 % 1038,6 hPa 0,0 l/m 0 min 0 min 0 W/m 0,0 km/h (0 Bft) 97,83 %
18.01.2022 07:10 5,5 C 5,0 C 4,4 C 98 % 1038,6 hPa 0,0 l/m 0 min 0 min 0 W/m 0,0 km/h (0 Bft) 97,87 %
18.01.2022 07:12 5,5 C 5,0 C 4,4 C 98 % 1038,7 hPa 0,0 l/m 0 min 0 min 0 W/m 0,0 km/h (0 Bft) 97,83 %
18.01.2022 07:14 5,4 C 4,4 C 4,4 C 98 % 1038,7 hPa 0,0 l/m 0 min 0 min 0 W/m 3,2 km/h (1 Bft) 93,62 %
18.01.2022 07:16 5,4 C 4,4 C 4,4 C 98 % 1038,7 hPa 0,0 l/m 0 min 0 min 0 W/m 0,0 km/h (0 Bft) 93,62 %
18.01.2022 07:18 5,4 C 4,4 C 4,4 C 98 % 1038,7 hPa 0,0 l/m 0 min 0 min 0 W/m 3,2 km/h (1 Bft) 97,87 %
18.01.2022 07:20 5,4 C 4,4 C 4,4 C 98 % 1038,6 hPa 0,0 l/m 0 min 0 min 0 W/m 0,0 km/h (0 Bft) 97,87 %
18.01.2022 07:22 5,4 C 4,4 C 4,4 C 98 % 1038,6 hPa 0,0 l/m 0 min 0 min 0 W/m 0,0 km/h (0 Bft) 97,83 %
18.01.2022 07:24 5,4 C 4,4 C 4,4 C 98 % 1038,6 hPa 0,0 l/m 0 min 0 min 0 W/m 3,2 km/h (1 Bft) 97,87 %
18.01.2022 07:26 5,4 C 4,4 C 4,4 C 98 % 1038,6 hPa 0,0 l/m 0 min 0 min 0 W/m 0,0 km/h (0 Bft) 97,87 %
18.01.2022 07:28 5,4 C 4,4 C 4,4 C 98 % 1038,7 hPa 0,0 l/m 0 min 0 min 0 W/m 0,0 km/h (0 Bft) 97,87 %
18.01.2022 07:30 5,4 C 4,4 C 4,4 C 98 % 1038,6 hPa 0,0 l/m 0 min 0 min 0 W/m 3,2 km/h (1 Bft) 97,87 %
18.01.2022 07:32 5,4 C 4,4 C 4,4 C 98 % 1038,6 hPa 0,0 l/m 0 min 0 min 0 W/m 0,0 km/h (0 Bft) 97,87 %
18.01.2022 07:34 5,4 C 4,4 C 4,4 C 98 % 1038,6 hPa 0,0 l/m 0 min 0 min 0 W/m 0,0 km/h (0 Bft) 97,87 %
18.01.2022 07:36 5,3 C 4,4 C 4,4 C 98 % 1038,7 hPa 0,0 l/m 0 min 0 min 0 W/m 0,0 km/h (0 Bft) 100,00 %
18.01.2022 07:38 5,3 C 4,4 C 4,4 C 98 % 1038,7 hPa 0,0 l/m 0 min 0 min 0 W/m 0,0 km/h (0 Bft) 97,87 %
18.01.2022 07:40 5,3 C 4,4 C 4,4 C 98 % 1038,7 hPa 0,0 l/m 0 min 0 min 0 W/m 0,0 km/h (0 Bft) 100,00 %
18.01.2022 07:42 5,3 C 4,4 C 4,4 C 98 % 1038,7 hPa 0,0 l/m 0 min 0 min 0 W/m 3,2 km/h (1 Bft) 97,87 %
18.01.2022 07:44 5,3 C 4,4 C 4,4 C 98 % 1038,7 hPa 0,0 l/m 0 min 0 min 0 W/m 0,0 km/h (0 Bft) 97,87 %
18.01.2022 07:46 5,3 C 4,4 C 4,4 C 98 % 1038,7 hPa 0,0 l/m 0 min 0 min 0 W/m 0,0 km/h (0 Bft) 97,83 %
18.01.2022 07:48 5,3 C 4,4 C 4,4 C 98 % 1038,8 hPa 0,0 l/m 0 min 0 min 0 W/m 3,2 km/h (1 Bft) 97,87 %
18.01.2022 07:50 5,3 C 4,4 C 4,4 C 98 % 1038,7 hPa 0,0 l/m 0 min 0 min 0 W/m 3,2 km/h (1 Bft) 97,87 %
18.01.2022 07:52 5,3 C 4,4 C 4,4 C 98 % 1038,7 hPa 0,0 l/m 0 min 0 min 0 W/m 3,2 km/h (1 Bft) 97,87 %
18.01.2022 07:54 5,3 C 4,4 C 4,4 C 98 % 1038,7 hPa 0,0 l/m 0 min 0 min 0 W/m 3,2 km/h (1 Bft) 97,87 %
18.01.2022 07:56 5,3 C 4,4 C 4,4 C 98 % 1038,7 hPa 0,0 l/m 0 min 0 min 0 W/m 3,2 km/h (1 Bft) 97,87 %
18.01.2022 07:58 5,3 C 4,4 C 4,4 C 98 % 1038,7 hPa 0,0 l/m 0 min 0 min 0 W/m 3,2 km/h (1 Bft) 97,83 %
18.01.2022 08:00 5,3 C 4,4 C 4,4 C 98 % 1038,8 hPa 0,0 l/m 0 min 0 min 0 W/m 3,2 km/h (1 Bft) 97,87 %
18.01.2022 08:02 5,3 C 4,4 C 4,4 C 98 % 1038,8 hPa 0,0 l/m 0 min 0 min 0 W/m 3,2 km/h (1 Bft) 97,87 %
18.01.2022 08:04 5,3 C 4,4 C 4,4 C 98 % 1038,8 hPa 0,0 l/m 0 min 0 min 0 W/m 3,2 km/h (1 Bft) 97,87 %
18.01.2022 08:06 5,3 C 4,4 C 4,4 C 98 % 1038,8 hPa 0,0 l/m 0 min 0 min 0 W/m 0,0 km/h (0 Bft) 95,74 %
18.01.2022 08:08 5,3 C 4,4 C 4,4 C 98 % 1038,9 hPa 0,0 l/m 0 min 0 min 0 W/m 0,0 km/h (0 Bft) 97,87 %
18.01.2022 08:10 5,3 C 4,4 C 4,4 C 98 % 1038,8 hPa 0,0 l/m 0 min 0 min 0 W/m 0,0 km/h (0 Bft) 97,83 %
18.01.2022 08:12 5,3 C 4,4 C 4,4 C 98 % 1038,9 hPa 0,0 l/m 0 min 0 min 0 W/m 0,0 km/h (0 Bft) 97,87 %
18.01.2022 08:14 5,3 C 4,4 C 4,4 C 98 % 1038,9 hPa 0,0 l/m 0 min 0 min 0 W/m 3,2 km/h (1 Bft) 97,87 %
18.01.2022 08:16 5,3 C 4,4 C 4,4 C 98 % 1038,9 hPa 0,0 l/m 0 min 0 min 0 W/m 0,0 km/h (0 Bft) 97,87 %
18.01.2022 08:18 5,3 C 4,4 C 4,4 C 98 % 1038,9 hPa 0,0 l/m 0 min 0 min 0 W/m 6,4 km/h (2 Bft) 97,87 %
18.01.2022 08:20 5,3 C 4,4 C 4,4 C 98 % 1038,9 hPa 0,0 l/m 0 min 0 min 0 W/m 0,0 km/h (0 Bft) 97,87 %
18.01.2022 08:22 5,3 C 4,4 C 4,4 C 98 % 1038,9 hPa 0,0 l/m 0 min 0 min 0 W/m 3,2 km/h (1 Bft) 95,65 %
18.01.2022 08:24 5,3 C 4,4 C 4,4 C 98 % 1038,9 hPa 0,0 l/m 0 min 0 min 0 W/m 3,2 km/h (1 Bft) 95,74 %
18.01.2022 08:26 5,3 C 4,4 C 4,4 C 98 % 1038,9 hPa 0,0 l/m 0 min 0 min 0 W/m 3,2 km/h (1 Bft) 97,87 %
18.01.2022 08:28 5,3 C 4,4 C 4,4 C 98 % 1038,9 hPa 0,0 l/m 0 min 0 min 0 W/m 3,2 km/h (1 Bft) 100,00 %
18.01.2022 08:30 5,3 C 4,4 C 4,4 C 98 % 1038,8 hPa 0,0 l/m 0 min 0 min 0 W/m 3,2 km/h (1 Bft) 100,00 %
18.01.2022 08:32 5,3 C 4,4 C 4,4 C 98 % 1038,8 hPa 0,0 l/m 0 min 0 min 0 W/m 3,2 km/h (1 Bft) 100,00 %
18.01.2022 08:34 5,3 C 4,4 C 4,4 C 98 % 1038,8 hPa 0,0 l/m 0 min 0 min 0 W/m 3,2 km/h (1 Bft) 97,87 %
18.01.2022 08:36 5,3 C 4,4 C 4,4 C 98 % 1038,9 hPa 0,0 l/m 0 min 0 min 3 W/m 6,4 km/h (2 Bft) 100,00 %
18.01.2022 08:38 5,3 C 4,4 C 4,4 C 98 % 1038,9 hPa 0,0 l/m 0 min 0 min 5 W/m 3,2 km/h (1 Bft) 100,00 %
18.01.2022 08:40 5,3 C 5,0 C 4,4 C 98 % 1038,9 hPa 0,0 l/m 0 min 0 min 5 W/m 0,0 km/h (0 Bft) 100,00 %
18.01.2022 08:42 5,3 C 5,0 C 4,4 C 98 % 1038,9 hPa 0,0 l/m 0 min 0 min 6 W/m 3,2 km/h (1 Bft) 97,87 %
18.01.2022 08:44 5,3 C 5,0 C 4,4 C 98 % 1038,9 hPa 0,0 l/m 0 min 0 min 7 W/m 3,2 km/h (1 Bft) 97,83 %
18.01.2022 08:46 5,3 C 4,4 C 4,4 C 98 % 1039,0 hPa 0,0 l/m 0 min 0 min 8 W/m 0,0 km/h (0 Bft) 100,00 %
18.01.2022 08:48 5,3 C 4,4 C 4,4 C 98 % 1039,0 hPa 0,0 l/m 0 min 0 min 9 W/m 3,2 km/h (1 Bft) 100,00 %
18.01.2022 08:50 5,3 C 5,0 C 4,4 C 98 % 1039,0 hPa 0,0 l/m 0 min 0 min 9 W/m 6,4 km/h (2 Bft) 100,00 %
18.01.2022 08:52 5,3 C 5,0 C 4,4 C 98 % 1039,0 hPa 0,0 l/m 0 min 0 min 9 W/m 3,2 km/h (1 Bft) 97,87 %
18.01.2022 08:54 5,3 C 5,0 C 4,4 C 98 % 1038,9 hPa 0,0 l/m 0 min 0 min 11 W/m 3,2 km/h (1 Bft) 100,00 %
18.01.2022 08:56 5,3 C 5,0 C 4,4 C 98 % 1039,0 hPa 0,0 l/m 0 min 0 min 11 W/m 3,2 km/h (1 Bft) 98,00 %
18.01.2022 08:58 5,3 C 5,0 C 4,4 C 98 % 1039,0 hPa 0,0 l/m 0 min 0 min 12 W/m 3,2 km/h (1 Bft) 97,87 %
18.01.2022 09:00 5,3 C 5,0 C 4,4 C 98 % 1039,0 hPa 0,0 l/m 0 min 0 min 12 W/m 3,2 km/h (1 Bft) 98,00 %
18.01.2022 09:02 5,3 C 5,0 C 4,4 C 99 % 1039,1 hPa 0,0 l/m 0 min 0 min 12 W/m 3,2 km/h (1 Bft) 95,74 %
18.01.2022 09:04 5,4 C 5,0 C 4,4 C 99 % 1039,1 hPa 0,0 l/m 0 min 0 min 12 W/m 0,0 km/h (0 Bft) 100,00 %
18.01.2022 09:06 5,4 C 5,0 C 4,4 C 99 % 1039,1 hPa 0,0 l/m 0 min 0 min 14 W/m 0,0 km/h (0 Bft) 97,83 %
18.01.2022 09:08 5,4 C 5,0 C 4,4 C 99 % 1039,1 hPa 0,0 l/m 0 min 0 min 16 W/m 3,2 km/h (1 Bft) 97,87 %
18.01.2022 09:10 5,4 C 5,0 C 4,4 C 99 % 1039,1 hPa 0,0 l/m 0 min 0 min 14 W/m 3,2 km/h (1 Bft) 97,37 %
18.01.2022 09:12 5,4 C 5,0 C 4,4 C 99 % 1039,2 hPa 0,0 l/m 0 min 0 min 14 W/m 6,4 km/h (2 Bft) 97,87 %
18.01.2022 09:14 5,4 C 5,0 C 4,4 C 99 % 1039,2 hPa 0,0 l/m 0 min 0 min 16 W/m 0,0 km/h (0 Bft) 93,62 %
18.01.2022 09:16 5,4 C 5,0 C 5,0 C 99 % 1039,2 hPa 0,0 l/m 0 min 0 min 18 W/m 3,2 km/h (1 Bft) 96,23 %
18.01.2022 09:18 5,4 C 5,0 C 5,0 C 99 % 1039,2 hPa 0,0 l/m 0 min 0 min 16 W/m 3,2 km/h (1 Bft) 95,74 %
18.01.2022 09:20 5,4 C 5,0 C 5,0 C 99 % 1039,2 hPa 0,0 l/m 0 min 0 min 18 W/m 6,4 km/h (2 Bft) 95,65 %
18.01.2022 09:22 5,4 C 5,0 C 5,0 C 99 % 1039,2 hPa 0,0 l/m 0 min 0 min 19 W/m 3,2 km/h (1 Bft) 96,00 %
18.01.2022 09:24 5,5 C 5,0 C 5,0 C 99 % 1039,2 hPa 0,0 l/m 0 min 0 min 20 W/m 3,2 km/h (1 Bft) 93,62 %
18.01.2022 09:26 5,5 C 5,0 C 5,0 C 99 % 1039,2 hPa 0,0 l/m 0 min 0 min 19 W/m 3,2 km/h (1 Bft) 95,74 %
18.01.2022 09:28 5,5 C 5,0 C 5,0 C 99 % 1039,2 hPa 0,0 l/m 0 min 0 min 19 W/m 3,2 km/h (1 Bft) 91,49 %
18.01.2022 09:30 5,5 C 5,0 C 5,0 C 99 % 1039,2 hPa 0,0 l/m 0 min 0 min 20 W/m 6,4 km/h (2 Bft) 100,00 %
18.01.2022 09:32 5,6 C 5,0 C 5,0 C 99 % 1039,2 hPa 0,0 l/m 0 min 0 min 21 W/m 3,2 km/h (1 Bft) 97,87 %
18.01.2022 09:34 5,6 C 5,0 C 5,0 C 99 % 1039,2 hPa 0,0 l/m 0 min 0 min 21 W/m 0,0 km/h (0 Bft) 97,37 %
18.01.2022 09:36 5,6 C 5,0 C 5,0 C 99 % 1039,2 hPa 0,0 l/m 0 min 0 min 21 W/m 0,0 km/h (0 Bft) 95,74 %
18.01.2022 09:38 5,6 C 5,0 C 5,0 C 99 % 1039,2 hPa 0,0 l/m 0 min 0 min 22 W/m 3,2 km/h (1 Bft) 98,00 %
18.01.2022 09:40 5,6 C 5,0 C 5,0 C 99 % 1039,2 hPa 0,0 l/m 0 min 0 min 24 W/m 3,2 km/h (1 Bft) 97,87 %
18.01.2022 09:42 5,6 C 5,0 C 5,0 C 99 % 1039,2 hPa 0,0 l/m 0 min 0 min 25 W/m 3,2 km/h (1 Bft) 95,65 %
18.01.2022 09:44 5,6 C 5,0 C 5,0 C 99 % 1039,2 hPa 0,0 l/m 0 min 0 min 26 W/m 3,2 km/h (1 Bft) 97,87 %
18.01.2022 09:46 5,6 C 5,0 C 5,0 C 99 % 1039,2 hPa 0,0 l/m 0 min 0 min 29 W/m 3,2 km/h (1 Bft) 96,23 %
18.01.2022 09:48 5,6 C 5,0 C 5,0 C 99 % 1039,2 hPa 0,0 l/m 0 min 0 min 32 W/m 3,2 km/h (1 Bft) 97,87 %
18.01.2022 09:50 5,6 C 5,0 C 5,0 C 99 % 1039,2 hPa 0,0 l/m 0 min 0 min 33 W/m 3,2 km/h (1 Bft) 97,87 %
18.01.2022 09:52 5,6 C 5,0 C 5,0 C 99 % 1039,1 hPa 0,0 l/m 0 min 0 min 36 W/m 3,2 km/h (1 Bft) 97,87 %
18.01.2022 09:54 5,6 C 5,0 C 5,0 C 99 % 1039,1 hPa 0,0 l/m 0 min 0 min 40 W/m 3,2 km/h (1 Bft) 100,00 %
18.01.2022 09:56 5,6 C 5,0 C 5,0 C 99 % 1039,1 hPa 0,0 l/m 0 min 0 min 38 W/m 3,2 km/h (1 Bft) 97,87 %
18.01.2022 09:58 5,6 C 5,0 C 5,0 C 99 % 1039,2 hPa 0,0 l/m 0 min 0 min 36 W/m 3,2 km/h (1 Bft) 96,88 %
18.01.2022 10:00 5,6 C 5,0 C 5,0 C 99 % 1039,2 hPa 0,0 l/m 0 min 0 min 40 W/m 6,4 km/h (2 Bft) 96,23 %
18.01.2022 10:02 5,6 C 5,6 C 5,0 C 99 % 1039,2 hPa 0,0 l/m 0 min 0 min 44 W/m 3,2 km/h (1 Bft) 97,73 %
18.01.2022 10:04 5,6 C 5,6 C 5,0 C 99 % 1039,3 hPa 0,0 l/m 0 min 0 min 49 W/m 6,4 km/h (2 Bft) 98,00 %
18.01.2022 10:06 5,6 C 5,6 C 5,0 C 99 % 1039,2 hPa 0,0 l/m 0 min 0 min 51 W/m 3,2 km/h (1 Bft) 97,83 %
18.01.2022 10:08 5,6 C 5,6 C 5,0 C 99 % 1039,3 hPa 0,0 l/m 0 min 0 min 51 W/m 3,2 km/h (1 Bft) 43,24 %
18.01.2022 10:10 5,7 C 5,6 C 5,0 C 99 % 1039,3 hPa 0,0 l/m 0 min 0 min 53 W/m 0,0 km/h (0 Bft) 100,00 %
18.01.2022 10:12 5,7 C 5,6 C 5,0 C 99 % 1039,2 hPa 0,0 l/m 0 min 0 min 58 W/m 0,0 km/h (0 Bft) 98,21 %
18.01.2022 10:14 5,7 C 5,6 C 5,0 C 99 % 1039,3 hPa 0,0 l/m 0 min 0 min 56 W/m 0,0 km/h (0 Bft) 100,00 %
18.01.2022 10:16 5,7 C 5,6 C 5,0 C 99 % 1039,3 hPa 0,0 l/m 0 min 0 min 48 W/m 3,2 km/h (1 Bft) 98,00 %
18.01.2022 10:18 5,7 C 5,6 C 5,0 C 99 % 1039,3 hPa 0,0 l/m 0 min 0 min 54 W/m 3,2 km/h (1 Bft) 100,00 %
18.01.2022 10:20 5,7 C 5,6 C 5,0 C 99 % 1039,4 hPa 0,0 l/m 0 min 0 min 66 W/m 3,2 km/h (1 Bft) 95,74 %
18.01.2022 10:22 5,7 C 5,6 C 5,6 C 99 % 1039,4 hPa 0,0 l/m 0 min 0 min 71 W/m 3,2 km/h (1 Bft) 97,87 %
18.01.2022 10:24 5,8 C 5,6 C 5,6 C 99 % 1039,4 hPa 0,0 l/m 0 min 0 min 74 W/m 3,2 km/h (1 Bft) 97,87 %
18.01.2022 10:26 5,8 C 5,6 C 5,6 C 99 % 1039,5 hPa 0,0 l/m 0 min 0 min 80 W/m 3,2 km/h (1 Bft) 98,11 %
18.01.2022 10:28 5,8 C 5,6 C 5,6 C 99 % 1039,5 hPa 0,0 l/m 0 min 0 min 82 W/m 3,2 km/h (1 Bft) 97,87 %
18.01.2022 10:30 5,8 C 5,6 C 5,6 C 99 % 1039,4 hPa 0,0 l/m 0 min 0 min 82 W/m 3,2 km/h (1 Bft) 97,37 %
18.01.2022 10:32 5,8 C 5,6 C 5,6 C 99 % 1039,4 hPa 0,0 l/m 0 min 0 min 74 W/m 6,4 km/h (2 Bft) 95,74 %
18.01.2022 10:34 5,8 C 5,6 C 5,6 C 99 % 1039,4 hPa 0,0 l/m 0 min 0 min 68 W/m 6,4 km/h (2 Bft) 97,87 %
18.01.2022 10:36 5,9 C 5,6 C 5,6 C 99 % 1039,4 hPa 0,0 l/m 0 min 0 min 64 W/m 6,4 km/h (2 Bft) 95,74 %
18.01.2022 10:38 5,9 C 6,1 C 5,6 C 99 % 1039,4 hPa 0,0 l/m 0 min 0 min 71 W/m 3,2 km/h (1 Bft) 97,96 %
18.01.2022 10:40 5,9 C 6,1 C 5,6 C 99 % 1039,4 hPa 0,0 l/m 0 min 0 min 77 W/m 9,7 km/h (2 Bft) 97,83 %
18.01.2022 10:42 5,9 C 6,1 C 5,6 C 99 % 1039,4 hPa 0,0 l/m 0 min 0 min 87 W/m 9,7 km/h (2 Bft) 97,87 %
18.01.2022 10:44 5,9 C 6,1 C 5,6 C 99 % 1039,4 hPa 0,0 l/m 0 min 0 min 97 W/m 6,4 km/h (2 Bft) 97,87 %
18.01.2022 10:46 5,9 C 6,1 C 5,6 C 99 % 1039,4 hPa 0,0 l/m 0 min 0 min 100 W/m 3,2 km/h (1 Bft) 97,87 %
18.01.2022 10:48 5,9 C 6,1 C 5,6 C 99 % 1039,5 hPa 0,0 l/m 0 min 0 min 102 W/m 3,2 km/h (1 Bft) 95,74 %
18.01.2022 10:50 6,0 C 6,1 C 5,6 C 99 % 1039,4 hPa 0,0 l/m 0 min 0 min 109 W/m 6,4 km/h (2 Bft) 97,87 %
18.01.2022 10:52 6,0 C 6,1 C 5,6 C 99 % 1039,4 hPa 0,0 l/m 0 min 0 min 113 W/m 6,4 km/h (2 Bft) 93,48 %
18.01.2022 10:54 6,0 C 6,1 C 6,1 C 99 % 1039,5 hPa 0,0 l/m 0 min 0 min 119 W/m 12,9 km/h (3 Bft) 95,74 %
18.01.2022 10:56 6,1 C 6,1 C 6,1 C 99 % 1039,5 hPa 0,0 l/m 0 min 0 min 123 W/m 6,4 km/h (2 Bft) 91,49 %
18.01.2022 10:58 6,1 C 6,7 C 6,1 C 99 % 1039,5 hPa 0,0 l/m 0 min 0 min 121 W/m 3,2 km/h (1 Bft) 96,00 %
18.01.2022 11:00 6,1 C 6,7 C 6,1 C 99 % 1039,4 hPa 0,0 l/m 0 min 0 min 119 W/m 6,4 km/h (2 Bft) 95,74 %
18.01.2022 11:02 6,1 C 6,1 C 6,1 C 99 % 1039,4 hPa 0,0 l/m 0 min 0 min 114 W/m 6,4 km/h (2 Bft) 95,92 %
18.01.2022 11:04 6,1 C 6,7 C 6,1 C 99 % 1039,5 hPa 0,0 l/m 0 min 0 min 121 W/m 9,7 km/h (2 Bft) 94,74 %
18.01.2022 11:06 6,1 C 6,7 C 6,1 C 99 % 1039,5 hPa 0,0 l/m 0 min 0 min 129 W/m 9,7 km/h (2 Bft) 95,74 %
18.01.2022 11:08 6,2 C 6,7 C 6,1 C 99 % 1039,5 hPa 0,0 l/m 0 min 0 min 136 W/m 6,4 km/h (2 Bft) 98,15 %
18.01.2022 11:10 6,2 C 6,7 C 6,1 C 99 % 1039,6 hPa 0,0 l/m 0 min 0 min 138 W/m 9,7 km/h (2 Bft) 97,87 %
18.01.2022 11:12 6,2 C 6,7 C 6,1 C 99 % 1039,6 hPa 0,0 l/m 0 min 0 min 138 W/m 3,2 km/h (1 Bft) 97,87 %
18.01.2022 11:14 6,2 C 6,7 C 6,1 C 99 % 1039,6 hPa 0,0 l/m 0 min 0 min 135 W/m 3,2 km/h (1 Bft) 97,83 %
18.01.2022 11:16 6,2 C 6,7 C 6,1 C 99 % 1039,6 hPa 0,0 l/m 0 min 0 min 128 W/m 0,0 km/h (0 Bft) 95,74 %
18.01.2022 11:18 6,2 C 6,7 C 6,1 C 99 % 1039,6 hPa 0,0 l/m 0 min 0 min 125 W/m 0,0 km/h (0 Bft) 98,00 %
18.01.2022 11:20 6,2 C 6,7 C 6,1 C 99 % 1039,6 hPa 0,0 l/m 0 min 0 min 139 W/m 0,0 km/h (0 Bft) 97,87 %
18.01.2022 11:22 6,3 C 7,2 C 6,1 C 99 % 1039,6 hPa 0,0 l/m 2 min 0 min 162 W/m 3,2 km/h (1 Bft) 97,30 %
18.01.2022 11:24 6,3 C 7,2 C 6,1 C 99 % 1039,6 hPa 0,0 l/m 0 min 0 min 148 W/m 3,2 km/h (1 Bft) 97,87 %
18.01.2022 11:26 6,3 C 7,2 C 6,7 C 99 % 1039,6 hPa 0,0 l/m 0 min 0 min 135 W/m 3,2 km/h (1 Bft) 97,87 %
18.01.2022 11:28 6,3 C 7,2 C 6,7 C 99 % 1039,6 hPa 0,0 l/m 0 min 0 min 128 W/m 6,4 km/h (2 Bft) 98,11 %
18.01.2022 11:30 6,3 C 7,2 C 6,7 C 99 % 1039,6 hPa 0,0 l/m 0 min 0 min 133 W/m 3,2 km/h (1 Bft) 100,00 %
18.01.2022 11:32 6,4 C 7,2 C 6,7 C 99 % 1039,6 hPa 0,0 l/m 0 min 0 min 134 W/m 3,2 km/h (1 Bft) 100,00 %
18.01.2022 11:34 6,4 C 7,2 C 6,7 C 99 % 1039,6 hPa 0,0 l/m 0 min 0 min 126 W/m 3,2 km/h (1 Bft) 100,00 %
18.01.2022 11:36 6,4 C 7,2 C 6,7 C 99 % 1039,5 hPa 0,0 l/m 0 min 0 min 120 W/m 3,2 km/h (1 Bft) 100,00 %
18.01.2022 11:38 6,4 C 7,2 C 6,7 C 99 % 1039,4 hPa 0,0 l/m 0 min 0 min 133 W/m 6,4 km/h (2 Bft) 100,00 %
18.01.2022 11:40 6,4 C 7,2 C 6,7 C 99 % 1039,4 hPa 0,0 l/m 0 min 0 min 141 W/m 6,4 km/h (2 Bft) 100,00 %
18.01.2022 11:42 6,4 C 7,2 C 6,7 C 99 % 1039,5 hPa 0,0 l/m 0 min 0 min 141 W/m 9,7 km/h (2 Bft) 100,00 %
18.01.2022 11:44 6,5 C 7,2 C 6,7 C 99 % 1039,4 hPa 0,0 l/m 0 min 0 min 142 W/m 3,2 km/h (1 Bft) 100,00 %
18.01.2022 11:46 6,5 C 7,2 C 6,7 C 99 % 1039,4 hPa 0,0 l/m 0 min 0 min 145 W/m 6,4 km/h (2 Bft) 100,00 %
18.01.2022 11:48 6,5 C 7,2 C 6,7 C 99 % 1039,5 hPa 0,0 l/m 0 min 0 min 157 W/m 3,2 km/h (1 Bft) 100,00 %
18.01.2022 11:50 6,5 C 7,2 C 6,7 C 99 % 1039,5 hPa 0,0 l/m 0 min 0 min 164 W/m 3,2 km/h (1 Bft) 100,00 %
18.01.2022 11:52 6,5 C 7,8 C 6,7 C 99 % 1039,4 hPa 0,0 l/m 0 min 0 min 162 W/m 3,2 km/h (1 Bft) 100,00 %
18.01.2022 11:54 6,6 C 7,8 C 6,7 C 99 % 1039,3 hPa 0,0 l/m 0 min 0 min 148 W/m 6,4 km/h (2 Bft) 100,00 %
18.01.2022 11:56 6,6 C 7,8 C 6,7 C 99 % 1039,3 hPa 0,0 l/m 0 min 0 min 157 W/m 3,2 km/h (1 Bft) 100,00 %
18.01.2022 11:58 6,6 C 7,8 C 6,7 C 99 % 1039,4 hPa 0,0 l/m 0 min 0 min 161 W/m 6,4 km/h (2 Bft) 97,92 %
18.01.2022 12:00 6,6 C 7,8 C 6,7 C 99 % 1039,3 hPa 0,0 l/m 0 min 0 min 131 W/m 6,4 km/h (2 Bft) 97,87 %
18.01.2022 12:02 6,6 C 7,8 C 6,7 C 99 % 1039,4 hPa 0,0 l/m 0 min 0 min 126 W/m 6,4 km/h (2 Bft) 97,96 %
18.01.2022 12:04 6,6 C 7,8 C 6,7 C 99 % 1039,3 hPa 0,0 l/m 0 min 0 min 138 W/m 3,2 km/h (1 Bft) 97,96 %
18.01.2022 12:08 6,6 C 7,8 C 6,7 C 99 % 1039,3 hPa 0,0 l/m 0 min 0 min 145 W/m 6,4 km/h (2 Bft) 97,56 %
18.01.2022 12:10 6,6 C 7,8 C 6,7 C 99 % 1039,3 hPa 0,0 l/m 0 min 0 min 160 W/m 9,7 km/h (2 Bft) 95,74 %
18.01.2022 12:12 6,6 C 7,8 C 6,7 C 99 % 1039,2 hPa 0,0 l/m 2 min 0 min 197 W/m 6,4 km/h (2 Bft) 97,87 %
18.01.2022 12:14 6,6 C 8,3 C 6,7 C 99 % 1039,2 hPa 0,0 l/m 2 min 0 min 192 W/m 6,4 km/h (2 Bft) 98,25 %
18.01.2022 12:16 6,6 C 7,8 C 6,7 C 99 % 1039,2 hPa 0,0 l/m 2 min 0 min 188 W/m 9,7 km/h (2 Bft) 97,92 %
18.01.2022 12:18 6,6 C 8,3 C 6,7 C 99 % 1039,2 hPa 0,0 l/m 2 min 0 min 179 W/m 6,4 km/h (2 Bft) 97,87 %
18.01.2022 12:20 6,6 C 7,8 C 6,7 C 99 % 1039,1 hPa 0,0 l/m 0 min 0 min 172 W/m 3,2 km/h (1 Bft) 95,74 %
18.01.2022 12:22 6,7 C 8,3 C 6,7 C 99 % 1039,1 hPa 0,0 l/m 0 min 0 min 170 W/m 9,7 km/h (2 Bft) 95,74 %
18.01.2022 12:24 6,7 C 8,3 C 7,2 C 99 % 1039,1 hPa 0,0 l/m 0 min 0 min 172 W/m 9,7 km/h (2 Bft) 97,83 %
18.01.2022 12:26 6,7 C 8,3 C 7,2 C 99 % 1039,1 hPa 0,0 l/m 0 min 0 min 175 W/m 9,7 km/h (2 Bft) 97,87 %
18.01.2022 12:28 6,8 C 8,3 C 7,2 C 99 % 1039,1 hPa 0,0 l/m 0 min 0 min 172 W/m 6,4 km/h (2 Bft) 97,87 %
18.01.2022 12:30 6,8 C 8,3 C 7,2 C 99 % 1039,1 hPa 0,0 l/m 0 min 0 min 170 W/m 6,4 km/h (2 Bft) 97,87 %
18.01.2022 12:32 6,8 C 8,9 C 7,2 C 99 % 1039,1 hPa 0,0 l/m 0 min 0 min 172 W/m 9,7 km/h (2 Bft) 97,87 %
18.01.2022 12:34 6,8 C 8,9 C 7,2 C 99 % 1039,1 hPa 0,0 l/m 2 min 0 min 178 W/m 3,2 km/h (1 Bft) 97,14 %
18.01.2022 12:36 6,9 C 8,9 C 7,2 C 99 % 1039,1 hPa 0,0 l/m 2 min 0 min 177 W/m 6,4 km/h (2 Bft) 96,55 %
18.01.2022 12:38 6,9 C 8,9 C 7,2 C 99 % 1039,1 hPa 0,0 l/m 0 min 0 min 173 W/m 3,2 km/h (1 Bft) 97,22 %
18.01.2022 12:40 6,9 C 8,9 C 7,2 C 98 % 1039,1 hPa 0,0 l/m 0 min 0 min 155 W/m 3,2 km/h (1 Bft) 97,83 %
18.01.2022 12:42 7,0 C 8,9 C 7,2 C 98 % 1039,1 hPa 0,0 l/m 0 min 0 min 142 W/m 6,4 km/h (2 Bft) 100,00 %
18.01.2022 12:44 7,0 C 8,9 C 7,2 C 99 % 1039,0 hPa 0,0 l/m 0 min 0 min 145 W/m 6,4 km/h (2 Bft) 100,00 %
18.01.2022 12:46 7,1 C 9,4 C 7,2 C 99 % 1039,0 hPa 0,0 l/m 0 min 0 min 151 W/m 3,2 km/h (1 Bft) 100,00 %
18.01.2022 12:48 7,1 C 9,4 C 7,2 C 99 % 1039,0 hPa 0,0 l/m 0 min 0 min 164 W/m 3,2 km/h (1 Bft) 97,83 %
18.01.2022 12:50 7,2 C 10,0 C 7,2 C 99 % 1039,0 hPa 0,0 l/m 0 min 0 min 160 W/m 0,0 km/h (0 Bft) 98,00 %
18.01.2022 12:52 7,2 C 9,4 C 7,2 C 98 % 1038,9 hPa 0,0 l/m 0 min 0 min 149 W/m 3,2 km/h (1 Bft) 100,00 %
18.01.2022 12:54 7,2 C 9,4 C 7,2 C 98 % 1038,9 hPa 0,0 l/m 0 min 0 min 163 W/m 3,2 km/h (1 Bft) 100,00 %
18.01.2022 12:56 7,2 C 10,6 C 7,2 C 98 % 1038,9 hPa 0,0 l/m 2 min 0 min 193 W/m 3,2 km/h (1 Bft) 98,00 %
18.01.2022 12:58 7,3 C 11,1 C 7,2 C 98 % 1038,9 hPa 0,0 l/m 2 min 0 min 234 W/m 3,2 km/h (1 Bft) 100,00 %
18.01.2022 13:00 7,3 C 10,6 C 7,2 C 98 % 1038,9 hPa 0,0 l/m 2 min 0 min 190 W/m 6,4 km/h (2 Bft) 100,00 %
18.01.2022 13:02 7,3 C 11,1 C 7,2 C 98 % 1038,8 hPa 0,0 l/m 2 min 0 min 183 W/m 6,4 km/h (2 Bft) 100,00 %
18.01.2022 13:04 7,4 C 11,7 C 7,2 C 98 % 1038,8 hPa 0,0 l/m 2 min 0 min 175 W/m 9,7 km/h (2 Bft) 100,00 %
18.01.2022 13:06 7,4 C 11,7 C 7,2 C 98 % 1038,8 hPa 0,0 l/m 2 min 0 min 215 W/m 3,2 km/h (1 Bft) 95,74 %
18.01.2022 13:08 7,5 C 13,3 C 7,2 C 98 % 1038,8 hPa 0,0 l/m 2 min 0 min 280 W/m 3,2 km/h (1 Bft) 100,00 %
18.01.2022 13:10 7,6 C 15,0 C 7,2 C 98 % 1038,8 hPa 0,0 l/m 2 min 0 min 299 W/m 6,4 km/h (2 Bft) 100,00 %
18.01.2022 13:12 7,7 C 16,7 C 7,2 C 98 % 1038,8 hPa 0,0 l/m 2 min 0 min 364 W/m 6,4 km/h (2 Bft) 97,96 %
18.01.2022 13:14 7,8 C 17,2 C 7,8 C 98 % 1038,8 hPa 0,0 l/m 2 min 0 min 352 W/m 3,2 km/h (1 Bft) 97,87 %
18.01.2022 13:16 7,9 C 18,3 C 7,2 C 98 % 1038,8 hPa 0,0 l/m 2 min 0 min 355 W/m 3,2 km/h (1 Bft) 97,37 %
18.01.2022 13:18 8,1 C 20,0 C 7,2 C 98 % 1038,8 hPa 0,0 l/m 2 min 0 min 378 W/m 3,2 km/h (1 Bft) 95,74 %
18.01.2022 13:20 8,1 C 20,0 C 7,2 C 98 % 1038,8 hPa 0,0 l/m 2 min 0 min 370 W/m 6,4 km/h (2 Bft) 97,87 %
18.01.2022 13:22 8,2 C 18,9 C 7,2 C 98 % 1038,8 hPa 0,0 l/m 2 min 0 min 275 W/m 6,4 km/h (2 Bft) 95,74 %
18.01.2022 13:24 8,3 C 17,8 C 7,2 C 97 % 1038,8 hPa 0,0 l/m 2 min 0 min 245 W/m 3,2 km/h (1 Bft) 95,65 %
18.01.2022 13:26 8,3 C 18,3 C 7,2 C 97 % 1038,8 hPa 0,0 l/m 2 min 0 min 299 W/m 6,4 km/h (2 Bft) 94,64 %
18.01.2022 13:28 8,4 C 18,9 C 7,8 C 97 % 1038,8 hPa 0,0 l/m 2 min 0 min 336 W/m 3,2 km/h (1 Bft) 95,74 %
18.01.2022 13:30 8,6 C 18,9 C 7,8 C 97 % 1038,8 hPa 0,0 l/m 2 min 0 min 366 W/m 3,2 km/h (1 Bft) 97,37 %
18.01.2022 13:32 8,6 C 18,9 C 7,8 C 96 % 1038,8 hPa 0,0 l/m 2 min 0 min 297 W/m 3,2 km/h (1 Bft) 97,87 %
18.01.2022 13:34 8,7 C 18,3 C 7,8 C 96 % 1038,8 hPa 0,0 l/m 2 min 0 min 204 W/m 3,2 km/h (1 Bft) 97,87 %
18.01.2022 13:36 8,8 C 16,1 C 7,8 C 96 % 1038,8 hPa 0,0 l/m 2 min 0 min 198 W/m 3,2 km/h (1 Bft) 96,15 %
18.01.2022 13:38 8,8 C 14,4 C 7,8 C 95 % 1038,8 hPa 0,0 l/m 2 min 0 min 172 W/m 3,2 km/h (1 Bft) 97,87 %
18.01.2022 13:40 8,8 C 13,9 C 7,8 C 95 % 1038,8 hPa 0,0 l/m 2 min 0 min 221 W/m 6,4 km/h (2 Bft) 93,62 %
18.01.2022 13:42 8,8 C 13,3 C 7,8 C 94 % 1038,7 hPa 0,0 l/m 2 min 0 min 216 W/m 6,4 km/h (2 Bft) 97,87 %
18.01.2022 13:44 8,8 C 12,8 C 7,8 C 94 % 1038,6 hPa 0,0 l/m 2 min 0 min 225 W/m 3,2 km/h (1 Bft) 96,00 %
18.01.2022 13:46 8,8 C 12,2 C 7,8 C 94 % 1038,7 hPa 0,0 l/m 2 min 0 min 205 W/m 3,2 km/h (1 Bft) 95,65 %
18.01.2022 13:48 8,8 C 11,7 C 7,8 C 93 % 1038,6 hPa 0,0 l/m 2 min 0 min 203 W/m 3,2 km/h (1 Bft) 95,74 %
18.01.2022 13:50 8,8 C 11,1 C 7,8 C 92 % 1038,5 hPa 0,0 l/m 2 min 0 min 208 W/m 3,2 km/h (1 Bft) 95,74 %
18.01.2022 13:52 8,8 C 10,6 C 7,8 C 92 % 1038,5 hPa 0,0 l/m 2 min 0 min 201 W/m 6,4 km/h (2 Bft) 95,74 %
18.01.2022 13:54 8,8 C 10,0 C 7,8 C 92 % 1038,5 hPa 0,0 l/m 2 min 0 min 190 W/m 6,4 km/h (2 Bft) 94,74 %
18.01.2022 13:56 8,7 C 9,4 C 7,8 C 91 % 1038,4 hPa 0,0 l/m 2 min 0 min 177 W/m 6,4 km/h (2 Bft) 93,62 %
18.01.2022 13:58 8,7 C 9,4 C 7,8 C 91 % 1038,4 hPa 0,0 l/m 2 min 0 min 160 W/m 3,2 km/h (1 Bft) 93,88 %
18.01.2022 14:00 8,7 C 9,4 C 7,8 C 91 % 1038,4 hPa 0,0 l/m 0 min 0 min 143 W/m 3,2 km/h (1 Bft) 95,74 %
18.01.2022 14:02 8,7 C 8,9 C 7,8 C 91 % 1038,4 hPa 0,0 l/m 0 min 0 min 133 W/m 3,2 km/h (1 Bft) 95,12 %
18.01.2022 14:04 8,7 C 8,9 C 7,8 C 91 % 1038,4 hPa 0,0 l/m 0 min 0 min 126 W/m 3,2 km/h (1 Bft) 94,34 %
18.01.2022 14:06 8,7 C 9,4 C 7,8 C 91 % 1038,4 hPa 0,0 l/m 0 min 0 min 134 W/m 6,4 km/h (2 Bft) 95,74 %
18.01.2022 14:08 8,7 C 10,0 C 7,8 C 91 % 1038,4 hPa 0,0 l/m 2 min 0 min 175 W/m 3,2 km/h (1 Bft) 95,74 %
18.01.2022 14:10 8,6 C 10,0 C 7,8 C 91 % 1038,4 hPa 0,0 l/m 0 min 0 min 116 W/m 3,2 km/h (1 Bft) 97,83 %
18.01.2022 14:12 8,6 C 10,0 C 7,8 C 90 % 1038,3 hPa 0,0 l/m 0 min 0 min 110 W/m 6,4 km/h (2 Bft) 96,00 %
18.01.2022 14:14 8,6 C 9,4 C 7,8 C 90 % 1038,3 hPa 0,0 l/m 0 min 0 min 114 W/m 6,4 km/h (2 Bft) 97,87 %
18.01.2022 14:16 8,6 C 9,4 C 7,2 C 90 % 1038,3 hPa 0,0 l/m 0 min 0 min 122 W/m 6,4 km/h (2 Bft) 95,74 %
18.01.2022 14:18 8,6 C 8,9 C 7,2 C 90 % 1038,3 hPa 0,0 l/m 0 min 0 min 130 W/m 6,4 km/h (2 Bft) 98,00 %
18.01.2022 14:20 8,5 C 8,9 C 7,2 C 90 % 1038,3 hPa 0,0 l/m 0 min 0 min 129 W/m 0,0 km/h (0 Bft) 97,14 %
18.01.2022 14:22 8,5 C 8,9 C 7,2 C 90 % 1038,2 hPa 0,0 l/m 0 min 0 min 120 W/m 0,0 km/h (0 Bft) 100,00 %
18.01.2022 14:24 8,4 C 8,9 C 7,2 C 90 % 1038,2 hPa 0,0 l/m 0 min 0 min 101 W/m 3,2 km/h (1 Bft) 97,87 %
18.01.2022 14:26 8,4 C 8,3 C 7,2 C 90 % 1038,2 hPa 0,0 l/m 0 min 0 min 86 W/m 0,0 km/h (0 Bft) 97,87 %
18.01.2022 14:28 8,4 C 8,3 C 7,2 C 90 % 1038,1 hPa 0,0 l/m 0 min 0 min 78 W/m 6,4 km/h (2 Bft) 95,74 %
18.01.2022 14:30 8,4 C 8,3 C 7,2 C 90 % 1038,1 hPa 0,0 l/m 0 min 0 min 76 W/m 6,4 km/h (2 Bft) 98,00 %
18.01.2022 14:32 8,4 C 8,3 C 7,2 C 90 % 1038,1 hPa 0,0 l/m 0 min 0 min 73 W/m 6,4 km/h (2 Bft) 97,83 %
18.01.2022 14:34 8,4 C 8,3 C 7,2 C 90 % 1038,1 hPa 0,0 l/m 0 min 0 min 69 W/m 3,2 km/h (1 Bft) 93,62 %
18.01.2022 14:36 8,3 C 8,3 C 7,2 C 90 % 1038,1 hPa 0,0 l/m 0 min 0 min 69 W/m 3,2 km/h (1 Bft) 95,74 %
18.01.2022 14:38 8,3 C 8,3 C 7,2 C 90 % 1038,1 hPa 0,0 l/m 0 min 0 min 71 W/m 3,2 km/h (1 Bft) 94,00 %
18.01.2022 14:40 8,3 C 7,8 C 6,7 C 90 % 1038,0 hPa 0,0 l/m 0 min 0 min 76 W/m 3,2 km/h (1 Bft) 97,14 %
18.01.2022 14:42 8,3 C 7,8 C 6,7 C 90 % 1038,0 hPa 0,0 l/m 0 min 0 min 80 W/m 3,2 km/h (1 Bft) 94,34 %
18.01.2022 14:44 8,2 C 7,8 C 6,7 C 90 % 1038,0 hPa 0,0 l/m 0 min 0 min 87 W/m 0,0 km/h (0 Bft) 93,62 %
18.01.2022 14:46 8,2 C 7,8 C 6,7 C 90 % 1038,0 hPa 0,0 l/m 0 min 0 min 90 W/m 3,2 km/h (1 Bft) 97,96 %
18.01.2022 14:48 8,2 C 8,3 C 6,7 C 90 % 1038,0 hPa 0,0 l/m 0 min 0 min 89 W/m 3,2 km/h (1 Bft) 95,74 %
18.01.2022 14:50 8,2 C 8,3 C 6,7 C 90 % 1037,9 hPa 0,0 l/m 0 min 0 min 81 W/m 0,0 km/h (0 Bft) 98,00 %
18.01.2022 14:52 8,2 C 7,8 C 6,7 C 90 % 1037,9 hPa 0,0 l/m 0 min 0 min 71 W/m 0,0 km/h (0 Bft) 97,14 %
18.01.2022 14:54 8,1 C 7,8 C 6,7 C 90 % 1037,9 hPa 0,0 l/m 0 min 0 min 65 W/m 0,0 km/h (0 Bft) 98,21 %
18.01.2022 14:56 8,1 C 7,8 C 6,7 C 90 % 1037,9 hPa 0,0 l/m 0 min 0 min 62 W/m 0,0 km/h (0 Bft) 97,83 %
18.01.2022 14:58 8,1 C 7,8 C 6,7 C 90 % 1037,9 hPa 0,0 l/m 0 min 0 min 63 W/m 3,2 km/h (1 Bft) 95,74 %
18.01.2022 15:00 8,1 C 7,8 C 6,7 C 90 % 1037,9 hPa 0,0 l/m 0 min 0 min 66 W/m 3,2 km/h (1 Bft) 95,74 %
18.01.2022 15:02 8,1 C 7,8 C 6,7 C 90 % 1037,9 hPa 0,0 l/m 0 min 0 min 65 W/m 0,0 km/h (0 Bft) 97,73 %
18.01.2022 15:04 8,1 C 7,8 C 6,7 C 90 % 1037,8 hPa 0,0 l/m 0 min 0 min 57 W/m 3,2 km/h (1 Bft) 97,87 %
18.01.2022 15:06 8,1 C 7,8 C 6,7 C 90 % 1037,8 hPa 0,0 l/m 0 min 0 min 54 W/m 3,2 km/h (1 Bft) 98,08 %
18.01.2022 15:08 8,1 C 7,2 C 6,1 C 90 % 1037,8 hPa 0,0 l/m 0 min 0 min 53 W/m 0,0 km/h (0 Bft) 97,87 %
18.01.2022 15:10 8,0 C 7,2 C 6,1 C 90 % 1037,8 hPa 0,0 l/m 0 min 0 min 52 W/m 0,0 km/h (0 Bft) 98,00 %
18.01.2022 15:12 7,9 C 7,2 C 6,1 C 90 % 1037,8 hPa 0,0 l/m 0 min 0 min 48 W/m 0,0 km/h (0 Bft) 97,37 %
18.01.2022 15:14 7,9 C 7,2 C 6,1 C 90 % 1037,7 hPa 0,0 l/m 0 min 0 min 46 W/m 0,0 km/h (0 Bft) 100,00 %
18.01.2022 15:16 7,9 C 7,2 C 6,1 C 90 % 1037,7 hPa 0,0 l/m 0 min 0 min 45 W/m 0,0 km/h (0 Bft) 95,74 %
18.01.2022 15:18 7,9 C 7,2 C 6,1 C 90 % 1037,7 hPa 0,0 l/m 0 min 0 min 42 W/m 0,0 km/h (0 Bft) 100,00 %
18.01.2022 15:20 7,9 C 7,2 C 5,6 C 90 % 1037,7 hPa 0,0 l/m 0 min 0 min 39 W/m 0,0 km/h (0 Bft) 97,96 %
18.01.2022 15:22 7,9 C 7,2 C 5,6 C 90 % 1037,7 hPa 0,0 l/m 0 min 0 min 35 W/m 0,0 km/h (0 Bft) 97,87 %
18.01.2022 15:24 7,9 C 7,2 C 5,6 C 90 % 1037,7 hPa 0,0 l/m 0 min 0 min 33 W/m 0,0 km/h (0 Bft) 100,00 %
18.01.2022 15:26 7,9 C 6,7 C 5,6 C 90 % 1037,7 hPa 0,0 l/m 0 min 0 min 33 W/m 0,0 km/h (0 Bft) 100,00 %
18.01.2022 15:28 7,8 C 6,7 C 5,6 C 90 % 1037,8 hPa 0,0 l/m 0 min 0 min 33 W/m 0,0 km/h (0 Bft) 100,00 %
18.01.2022 15:30 7,8 C 6,7 C 5,6 C 90 % 1037,7 hPa 0,0 l/m 0 min 0 min 34 W/m 0,0 km/h (0 Bft) 97,87 %
18.01.2022 15:32 7,8 C 6,7 C 5,6 C 90 % 1037,7 hPa 0,0 l/m 0 min 0 min 35 W/m 0,0 km/h (0 Bft) 100,00 %
18.01.2022 15:34 7,8 C 6,7 C 5,6 C 90 % 1037,7 hPa 0,0 l/m 0 min 0 min 36 W/m 0,0 km/h (0 Bft) 100,00 %
18.01.2022 15:36 7,8 C 6,7 C 5,6 C 90 % 1037,7 hPa 0,0 l/m 0 min 0 min 35 W/m 0,0 km/h (0 Bft) 100,00 %
18.01.2022 15:38 7,7 C 6,7 C 5,6 C 90 % 1037,6 hPa 0,0 l/m 0 min 0 min 37 W/m 0,0 km/h (0 Bft) 95,45 %
18.01.2022 15:40 7,7 C 6,7 C 5,0 C 90 % 1037,6 hPa 0,0 l/m 0 min 0 min 40 W/m 3,2 km/h (1 Bft) 97,87 %
18.01.2022 15:42 7,7 C 6,7 C 5,0 C 90 % 1037,6 hPa 0,0 l/m 0 min 0 min 42 W/m 0,0 km/h (0 Bft) 97,96 %
18.01.2022 15:44 7,7 C 6,1 C 5,0 C 90 % 1037,6 hPa 0,0 l/m 0 min 0 min 41 W/m 0,0 km/h (0 Bft) 97,87 %
18.01.2022 15:46 7,6 C 6,1 C 5,0 C 90 % 1037,7 hPa 0,0 l/m 0 min 0 min 37 W/m 0,0 km/h (0 Bft) 97,73 %
18.01.2022 15:48 7,6 C 6,1 C 5,0 C 90 % 1037,7 hPa 0,0 l/m 0 min 0 min 33 W/m 0,0 km/h (0 Bft) 97,87 %
18.01.2022 15:50 7,6 C 6,1 C 5,0 C 90 % 1037,7 hPa 0,0 l/m 0 min 0 min 32 W/m 0,0 km/h (0 Bft) 100,00 %
18.01.2022 15:52 7,6 C 6,1 C 5,0 C 90 % 1037,6 hPa 0,0 l/m 0 min 0 min 33 W/m 0,0 km/h (0 Bft) 100,00 %
18.01.2022 15:54 7,5 C 6,1 C 5,0 C 90 % 1037,6 hPa 0,0 l/m 0 min 0 min 33 W/m 0,0 km/h (0 Bft) 97,96 %
18.01.2022 15:56 7,5 C 6,7 C 5,0 C 90 % 1037,6 hPa 0,0 l/m 0 min 0 min 35 W/m 3,2 km/h (1 Bft) 97,87 %
18.01.2022 15:58 7,4 C 6,7 C 5,0 C 90 % 1037,6 hPa 0,0 l/m 0 min 0 min 34 W/m 3,2 km/h (1 Bft) 97,37 %
18.01.2022 16:00 7,4 C 6,7 C 5,6 C 90 % 1037,6 hPa 0,0 l/m 0 min 0 min 31 W/m 0,0 km/h (0 Bft) 98,11 %
18.01.2022 16:02 7,4 C 6,7 C 5,6 C 90 % 1037,5 hPa 0,0 l/m 0 min 0 min 28 W/m 0,0 km/h (0 Bft) 95,12 %
18.01.2022 16:04 7,4 C 6,7 C 5,6 C 90 % 1037,5 hPa 0,0 l/m 0 min 0 min 26 W/m 0,0 km/h (0 Bft) 98,00 %
18.01.2022 16:06 7,3 C 6,7 C 5,0 C 90 % 1037,4 hPa 0,0 l/m 0 min 0 min 25 W/m 0,0 km/h (0 Bft) 97,87 %
18.01.2022 16:08 7,3 C 6,1 C 5,0 C 90 % 1037,4 hPa 0,0 l/m 0 min 0 min 24 W/m 0,0 km/h (0 Bft) 97,83 %
18.01.2022 16:10 7,3 C 6,1 C 5,0 C 91 % 1037,4 hPa 0,0 l/m 0 min 0 min 23 W/m 0,0 km/h (0 Bft) 95,74 %
18.01.2022 16:12 7,3 C 6,1 C 5,0 C 90 % 1037,3 hPa 0,0 l/m 0 min 0 min 22 W/m 0,0 km/h (0 Bft) 93,62 %
18.01.2022 16:14 7,3 C 6,1 C 5,0 C 90 % 1037,3 hPa 0,0 l/m 0 min 0 min 21 W/m 0,0 km/h (0 Bft) 97,87 %
18.01.2022 16:16 7,3 C 6,1 C 5,0 C 90 % 1037,3 hPa 0,0 l/m 0 min 0 min 19 W/m 0,0 km/h (0 Bft) 97,87 %
18.01.2022 16:18 7,2 C 6,1 C 4,4 C 90 % 1037,4 hPa 0,0 l/m 0 min 0 min 19 W/m 0,0 km/h (0 Bft) 97,87 %
18.01.2022 16:20 7,2 C 5,6 C 4,4 C 90 % 1037,3 hPa 0,0 l/m 0 min 0 min 19 W/m 0,0 km/h (0 Bft) 97,83 %
18.01.2022 16:22 7,2 C 5,6 C 4,4 C 91 % 1037,3 hPa 0,0 l/m 0 min 0 min 19 W/m 0,0 km/h (0 Bft) 95,74 %
18.01.2022 16:24 7,2 C 5,6 C 4,4 C 91 % 1037,3 hPa 0,0 l/m 0 min 0 min 19 W/m 0,0 km/h (0 Bft) 95,74 %
18.01.2022 16:26 7,1 C 5,6 C 4,4 C 91 % 1037,3 hPa 0,0 l/m 0 min 0 min 18 W/m 0,0 km/h (0 Bft) 98,11 %
18.01.2022 16:28 7,1 C 5,6 C 4,4 C 91 % 1037,3 hPa 0,0 l/m 0 min 0 min 17 W/m 0,0 km/h (0 Bft) 100,00 %
18.01.2022 16:30 7,1 C 5,6 C 4,4 C 91 % 1037,3 hPa 0,0 l/m 0 min 0 min 16 W/m 0,0 km/h (0 Bft) 97,83 %
18.01.2022 16:32 7,0 C 5,0 C 4,4 C 91 % 1037,2 hPa 0,0 l/m 0 min 0 min 15 W/m 0,0 km/h (0 Bft) 100,00 %
18.01.2022 16:34 7,0 C 5,0 C 3,9 C 90 % 1037,1 hPa 0,0 l/m 0 min 0 min 14 W/m 0,0 km/h (0 Bft) 97,37 %
18.01.2022 16:36 6,9 C 5,0 C 3,9 C 90 % 1037,1 hPa 0,0 l/m 0 min 0 min 14 W/m 0,0 km/h (0 Bft) 97,87 %
18.01.2022 16:38 6,9 C 5,0 C 3,9 C 90 % 1037,1 hPa 0,0 l/m 0 min 0 min 12 W/m 0,0 km/h (0 Bft) 97,87 %
18.01.2022 16:40 6,9 C 5,0 C 3,9 C 90 % 1037,0 hPa 0,0 l/m 0 min 0 min 12 W/m 0,0 km/h (0 Bft) 97,87 %
18.01.2022 16:42 6,8 C 4,4 C 3,9 C 90 % 1037,1 hPa 0,0 l/m 0 min 0 min 11 W/m 0,0 km/h (0 Bft) 96,36 %
18.01.2022 16:44 6,8 C 4,4 C 3,9 C 90 % 1037,1 hPa 0,0 l/m 0 min 0 min 11 W/m 0,0 km/h (0 Bft) 97,37 %
18.01.2022 16:46 6,8 C 4,4 C 3,3 C 90 % 1037,1 hPa 0,0 l/m 0 min 0 min 11 W/m 0,0 km/h (0 Bft) 97,87 %
18.01.2022 16:48 6,7 C 4,4 C 3,3 C 90 % 1037,2 hPa 0,0 l/m 0 min 0 min 9 W/m 0,0 km/h (0 Bft) 97,87 %
18.01.2022 16:50 6,7 C 4,4 C 3,3 C 90 % 1037,1 hPa 0,0 l/m 0 min 0 min 9 W/m 0,0 km/h (0 Bft) 97,87 %
18.01.2022 16:52 6,6 C 4,4 C 3,3 C 90 % 1037,1 hPa 0,0 l/m 0 min 0 min 7 W/m 0,0 km/h (0 Bft) 97,87 %
18.01.2022 16:54 6,6 C 3,9 C 3,3 C 90 % 1037,0 hPa 0,0 l/m 0 min 0 min 7 W/m 0,0 km/h (0 Bft) 97,83 %
18.01.2022 16:56 6,5 C 3,9 C 3,3 C 90 % 1037,1 hPa 0,0 l/m 0 min 0 min 7 W/m 0,0 km/h (0 Bft) 97,87 %
18.01.2022 16:58 6,5 C 3,9 C 3,3 C 90 % 1037,1 hPa 0,0 l/m 0 min 0 min 5 W/m 0,0 km/h (0 Bft) 96,00 %
18.01.2022 17:00 6,4 C 3,9 C 3,3 C 90 % 1037,0 hPa 0,0 l/m 0 min 0 min 5 W/m 0,0 km/h (0 Bft) 97,87 %
18.01.2022 17:02 6,3 C 3,9 C 3,3 C 90 % 1037,1 hPa 0,0 l/m 0 min 0 min 5 W/m 0,0 km/h (0 Bft) 98,00 %
18.01.2022 17:04 6,3 C 3,9 C 3,3 C 90 % 1037,1 hPa 0,0 l/m 0 min 0 min 5 W/m 0,0 km/h (0 Bft) 97,83 %
18.01.2022 17:06 6,2 C 3,9 C 3,3 C 90 % 1037,1 hPa 0,0 l/m 0 min 0 min 0 W/m 0,0 km/h (0 Bft) 100,00 %
18.01.2022 17:08 6,2 C 3,9 C 2,8 C 90 % 1037,0 hPa 0,0 l/m 0 min 0 min 0 W/m 0,0 km/h (0 Bft) 100,00 %
18.01.2022 17:10 6,1 C 3,9 C 2,8 C 90 % 1037,0 hPa 0,0 l/m 0 min 0 min 0 W/m 0,0 km/h (0 Bft) 100,00 %
18.01.2022 17:12 6,1 C 3,3 C 2,8 C 90 % 1037,0 hPa 0,0 l/m 0 min 0 min 0 W/m 0,0 km/h (0 Bft) 100,00 %
18.01.2022 17:14 6,0 C 3,3 C 2,8 C 90 % 1036,9 hPa 0,0 l/m 0 min 0 min 0 W/m 0,0 km/h (0 Bft) 100,00 %
18.01.2022 17:16 5,9 C 3,3 C 2,8 C 90 % 1037,0 hPa 0,0 l/m 0 min 0 min 0 W/m 0,0 km/h (0 Bft) 100,00 %
18.01.2022 17:18 5,9 C 3,3 C 2,8 C 90 % 1037,0 hPa 0,0 l/m 0 min 0 min 0 W/m 0,0 km/h (0 Bft) 100,00 %
18.01.2022 17:20 5,8 C 3,3 C 2,8 C 90 % 1037,0 hPa 0,0 l/m 0 min 0 min 0 W/m 0,0 km/h (0 Bft) 100,00 %
18.01.2022 17:22 5,8 C 3,3 C 2,8 C 90 % 1036,9 hPa 0,0 l/m 0 min 0 min 0 W/m 0,0 km/h (0 Bft) 97,87 %
18.01.2022 17:24 5,7 C 3,3 C 2,8 C 90 % 1036,9 hPa 0,0 l/m 0 min 0 min 0 W/m 0,0 km/h (0 Bft) 100,00 %
18.01.2022 17:26 5,6 C 3,3 C 2,8 C 90 % 1036,9 hPa 0,0 l/m 0 min 0 min 0 W/m 0,0 km/h (0 Bft) 97,87 %
18.01.2022 17:28 5,6 C 3,3 C 2,8 C 90 % 1036,8 hPa 0,0 l/m 0 min 0 min 0 W/m 0,0 km/h (0 Bft) 100,00 %
18.01.2022 17:30 5,5 C 3,3 C 2,8 C 90 % 1036,8 hPa 0,0 l/m 0 min 0 min 0 W/m 0,0 km/h (0 Bft) 100,00 %
18.01.2022 17:32 5,4 C 3,3 C 2,2 C 90 % 1036,8 hPa 0,0 l/m 0 min 0 min 0 W/m 0,0 km/h (0 Bft) 97,87 %
18.01.2022 17:34 5,4 C 3,3 C 2,2 C 90 % 1036,9 hPa 0,0 l/m 0 min 0 min 0 W/m 0,0 km/h (0 Bft) 97,87 %
18.01.2022 17:36 5,3 C 2,8 C 2,2 C 90 % 1036,8 hPa 0,0 l/m 0 min 0 min 0 W/m 0,0 km/h (0 Bft) 95,74 %
18.01.2022 17:38 5,3 C 2,8 C 2,2 C 90 % 1036,9 hPa 0,0 l/m 0 min 0 min 0 W/m 0,0 km/h (0 Bft) 96,36 %
18.01.2022 17:40 5,2 C 2,8 C 2,2 C 91 % 1036,8 hPa 0,0 l/m 0 min 0 min 0 W/m 0,0 km/h (0 Bft) 94,74 %
18.01.2022 17:42 5,2 C 2,8 C 2,2 C 91 % 1036,9 hPa 0,0 l/m 0 min 0 min 0 W/m 0,0 km/h (0 Bft) 95,74 %
18.01.2022 17:44 5,1 C 2,8 C 2,2 C 91 % 1036,9 hPa 0,0 l/m 0 min 0 min 0 W/m 0,0 km/h (0 Bft) 98,21 %
18.01.2022 17:46 5,1 C 2,8 C 2,2 C 91 % 1037,0 hPa 0,0 l/m 0 min 0 min 0 W/m 0,0 km/h (0 Bft) 97,37 %
18.01.2022 17:48 5,1 C 2,8 C 2,2 C 91 % 1037,0 hPa 0,0 l/m 0 min 0 min 0 W/m 0,0 km/h (0 Bft) 95,74 %
18.01.2022 17:50 5,0 C 2,8 C 2,2 C 91 % 1037,0 hPa 0,0 l/m 0 min 0 min 0 W/m 0,0 km/h (0 Bft) 93,62 %
18.01.2022 17:52 4,9 C 2,8 C 2,2 C 91 % 1037,0 hPa 0,0 l/m 0 min 0 min 0 W/m 0,0 km/h (0 Bft) 93,48 %
18.01.2022 17:54 4,9 C 2,8 C 2,2 C 91 % 1037,0 hPa 0,0 l/m 0 min 0 min 0 W/m 0,0 km/h (0 Bft) 95,74 %
18.01.2022 17:56 4,8 C 2,8 C 2,2 C 91 % 1037,0 hPa 0,0 l/m 0 min 0 min 0 W/m 0,0 km/h (0 Bft) 91,49 %
18.01.2022 17:58 4,8 C 2,8 C 2,2 C 91 % 1037,0 hPa 0,0 l/m 0 min 0 min 0 W/m 0,0 km/h (0 Bft) 96,00 %
18.01.2022 18:00 4,7 C 2,8 C 2,2 C 91 % 1037,0 hPa 0,0 l/m 0 min 0 min 0 W/m 0,0 km/h (0 Bft) 93,62 %
18.01.2022 18:02 4,7 C 2,8 C 1,7 C 91 % 1036,9 hPa 0,0 l/m 0 min 0 min 0 W/m 0,0 km/h (0 Bft) 93,88 %
18.01.2022 18:04 4,6 C 2,8 C 1,7 C 91 % 1036,9 hPa 0,0 l/m 0 min 0 min 0 W/m 0,0 km/h (0 Bft) 96,00 %
18.01.2022 18:08 4,6 C 2,8 C 2,2 C 91 % 1036,9 hPa 0,0 l/m 0 min 0 min 0 W/m 0,0 km/h (0 Bft) 93,90 %
18.01.2022 18:10 4,5 C 2,8 C 2,2 C 91 % 1036,9 hPa 0,0 l/m 0 min 0 min 0 W/m 0,0 km/h (0 Bft) 95,74 %
18.01.2022 18:12 4,5 C 2,8 C 2,2 C 91 % 1036,9 hPa 0,0 l/m 0 min 0 min 0 W/m 0,0 km/h (0 Bft) 92,45 %
18.01.2022 18:14 4,4 C 2,8 C 2,2 C 92 % 1037,0 hPa 0,0 l/m 0 min 0 min 0 W/m 0,0 km/h (0 Bft) 95,65 %
18.01.2022 18:16 4,4 C 2,8 C 2,2 C 92 % 1037,0 hPa 0,0 l/m 0 min 0 min 0 W/m 0,0 km/h (0 Bft) 97,56 %
18.01.2022 18:18 4,4 C 3,3 C 2,2 C 92 % 1037,0 hPa 0,0 l/m 0 min 0 min 0 W/m 0,0 km/h (0 Bft) 97,87 %
18.01.2022 18:20 4,4 C 3,3 C 2,2 C 92 % 1036,9 hPa 0,0 l/m 0 min 0 min 0 W/m 0,0 km/h (0 Bft) 96,23 %
18.01.2022 18:22 4,3 C 3,3 C 2,2 C 92 % 1036,9 hPa 0,0 l/m 0 min 0 min 0 W/m 0,0 km/h (0 Bft) 97,87 %
18.01.2022 18:24 4,3 C 3,3 C 2,2 C 92 % 1036,9 hPa 0,0 l/m 0 min 0 min 0 W/m 0,0 km/h (0 Bft) 97,96 %
18.01.2022 18:26 4,3 C 3,3 C 2,2 C 92 % 1036,9 hPa 0,0 l/m 0 min 0 min 0 W/m 0,0 km/h (0 Bft) 97,87 %
18.01.2022 18:28 4,4 C 3,3 C 2,8 C 92 % 1036,8 hPa 0,0 l/m 0 min 0 min 0 W/m 0,0 km/h (0 Bft) 93,62 %
18.01.2022 18:30 4,4 C 3,3 C 2,8 C 93 % 1036,8 hPa 0,0 l/m 0 min 0 min 0 W/m 0,0 km/h (0 Bft) 96,00 %
18.01.2022 18:32 4,4 C 3,3 C 2,8 C 93 % 1036,9 hPa 0,0 l/m 0 min 0 min 0 W/m 0,0 km/h (0 Bft) 97,87 %
18.01.2022 18:34 4,4 C 3,9 C 2,8 C 93 % 1036,9 hPa 0,0 l/m 0 min 0 min 0 W/m 0,0 km/h (0 Bft) 95,74 %
18.01.2022 18:36 4,4 C 3,9 C 2,8 C 93 % 1036,9 hPa 0,0 l/m 0 min 0 min 0 W/m 0,0 km/h (0 Bft) 97,14 %
18.01.2022 18:38 4,4 C 3,9 C 2,8 C 93 % 1036,9 hPa 0,0 l/m 0 min 0 min 0 W/m 0,0 km/h (0 Bft) 96,36 %
18.01.2022 18:40 4,4 C 3,9 C 2,8 C 93 % 1036,8 hPa 0,0 l/m 0 min 0 min 0 W/m 0,0 km/h (0 Bft) 96,00 %
18.01.2022 18:42 4,5 C 3,9 C 2,8 C 94 % 1036,9 hPa 0,0 l/m 0 min 0 min 0 W/m 0,0 km/h (0 Bft) 100,00 %
18.01.2022 18:44 4,6 C 3,9 C 2,8 C 94 % 1036,9 hPa 0,0 l/m 0 min 0 min 0 W/m 0,0 km/h (0 Bft) 96,23 %
18.01.2022 18:46 4,6 C 3,9 C 3,3 C 94 % 1037,0 hPa 0,0 l/m 0 min 0 min 0 W/m 0,0 km/h (0 Bft) 96,00 %
18.01.2022 18:48 4,6 C 4,4 C 3,3 C 94 % 1036,9 hPa 0,0 l/m 0 min 0 min 0 W/m 0,0 km/h (0 Bft) 95,65 %
18.01.2022 18:50 4,7 C 4,4 C 3,3 C 94 % 1036,9 hPa 0,0 l/m 0 min 0 min 0 W/m 0,0 km/h (0 Bft) 97,87 %
18.01.2022 18:52 4,7 C 4,4 C 3,3 C 94 % 1036,9 hPa 0,0 l/m 0 min 0 min 0 W/m 0,0 km/h (0 Bft) 98,00 %
18.01.2022 18:54 4,7 C 4,4 C 3,3 C 94 % 1036,8 hPa 0,0 l/m 0 min 0 min 0 W/m 0,0 km/h (0 Bft) 97,87 %
18.01.2022 18:56 4,8 C 4,4 C 3,3 C 95 % 1036,8 hPa 0,0 l/m 0 min 0 min 0 W/m 0,0 km/h (0 Bft) 97,87 %
18.01.2022 18:58 4,8 C 4,4 C 3,3 C 95 % 1036,8 hPa 0,0 l/m 0 min 0 min 0 W/m 0,0 km/h (0 Bft) 97,37 %
18.01.2022 19:00 4,8 C 4,4 C 3,3 C 95 % 1036,8 hPa 0,0 l/m 0 min 0 min 0 W/m 0,0 km/h (0 Bft) 97,87 %
18.01.2022 19:02 4,9 C 4,4 C 3,3 C 95 % 1036,8 hPa 0,0 l/m 0 min 0 min 0 W/m 0,0 km/h (0 Bft) 100,00 %
18.01.2022 19:04 4,8 C 4,4 C 3,3 C 95 % 1036,7 hPa 0,0 l/m 0 min 0 min 0 W/m 0,0 km/h (0 Bft) 100,00 %
18.01.2022 19:06 4,9 C 4,4 C 3,3 C 95 % 1036,7 hPa 0,0 l/m 0 min 0 min 0 W/m 0,0 km/h (0 Bft) 100,00 %
18.01.2022 19:08 4,9 C 4,4 C 3,3 C 95 % 1036,7 hPa 0,0 l/m 0 min 0 min 0 W/m 0,0 km/h (0 Bft) 100,00 %
18.01.2022 19:10 4,9 C 4,4 C 3,3 C 95 % 1036,7 hPa 0,0 l/m 0 min 0 min 0 W/m 0,0 km/h (0 Bft) 100,00 %
18.01.2022 19:12 4,9 C 4,4 C 3,3 C 95 % 1036,7 hPa 0,0 l/m 0 min 0 min 0 W/m 0,0 km/h (0 Bft) 100,00 %
18.01.2022 19:14 4,9 C 4,4 C 3,9 C 95 % 1036,7 hPa 0,0 l/m 0 min 0 min 0 W/m 0,0 km/h (0 Bft) 100,00 %
18.01.2022 19:16 4,9 C 4,4 C 3,9 C 95 % 1036,7 hPa 0,0 l/m 0 min 0 min 0 W/m 0,0 km/h (0 Bft) 100,00 %
18.01.2022 19:18 4,9 C 4,4 C 3,3 C 95 % 1036,6 hPa 0,0 l/m 0 min 0 min 0 W/m 3,2 km/h (1 Bft) 100,00 %
18.01.2022 19:20 4,9 C 4,4 C 3,9 C 95 % 1036,6 hPa 0,0 l/m 0 min 0 min 0 W/m 0,0 km/h (0 Bft) 100,00 %
18.01.2022 19:22 5,0 C 5,0 C 3,9 C 95 % 1036,7 hPa 0,0 l/m 0 min 0 min 0 W/m 0,0 km/h (0 Bft) 96,36 %
18.01.2022 19:24 5,0 C 5,0 C 3,9 C 95 % 1036,7 hPa 0,0 l/m 0 min 0 min 0 W/m 0,0 km/h (0 Bft) 100,00 %
18.01.2022 19:26 5,1 C 5,0 C 3,9 C 95 % 1036,6 hPa 0,0 l/m 0 min 0 min 0 W/m 0,0 km/h (0 Bft) 100,00 %
18.01.2022 19:28 5,1 C 5,0 C 3,9 C 95 % 1036,6 hPa 0,0 l/m 0 min 0 min 0 W/m 0,0 km/h (0 Bft) 100,00 %
18.01.2022 19:30 5,1 C 5,0 C 3,9 C 96 % 1036,5 hPa 0,0 l/m 0 min 0 min 0 W/m 0,0 km/h (0 Bft) 97,87 %
18.01.2022 19:32 5,2 C 5,0 C 3,9 C 95 % 1036,5 hPa 0,0 l/m 0 min 0 min 0 W/m 3,2 km/h (1 Bft) 98,18 %
18.01.2022 19:34 5,2 C 5,0 C 3,9 C 96 % 1036,4 hPa 0,0 l/m 0 min 0 min 0 W/m 0,0 km/h (0 Bft) 97,87 %
18.01.2022 19:36 5,2 C 5,0 C 3,9 C 96 % 1036,4 hPa 0,0 l/m 0 min 0 min 0 W/m 0,0 km/h (0 Bft) 44,44 %
18.01.2022 19:38 5,2 C 5,0 C 3,9 C 96 % 1036,4 hPa 0,0 l/m 0 min 0 min 0 W/m 0,0 km/h (0 Bft) 97,37 %
18.01.2022 19:40 5,3 C 5,0 C 3,9 C 96 % 1036,4 hPa 0,0 l/m 0 min 0 min 0 W/m 0,0 km/h (0 Bft) 97,87 %
18.01.2022 19:42 5,3 C 5,0 C 3,9 C 96 % 1036,3 hPa 0,0 l/m 0 min 0 min 0 W/m 3,2 km/h (1 Bft) 97,87 %
18.01.2022 19:44 5,4 C 5,0 C 3,9 C 96 % 1036,2 hPa 0,0 l/m 0 min 0 min 0 W/m 3,2 km/h (1 Bft) 93,75 %
18.01.2022 19:46 5,4 C 5,6 C 3,9 C 96 % 1036,1 hPa 0,0 l/m 0 min 0 min 0 W/m 0,0 km/h (0 Bft) 97,83 %
18.01.2022 19:48 5,5 C 5,6 C 4,4 C 96 % 1036,0 hPa 0,0 l/m 0 min 0 min 0 W/m 0,0 km/h (0 Bft) 97,87 %
18.01.2022 19:50 5,5 C 5,0 C 4,4 C 96 % 1036,0 hPa 0,0 l/m 0 min 0 min 0 W/m 0,0 km/h (0 Bft) 97,87 %
18.01.2022 19:52 5,6 C 5,0 C 4,4 C 96 % 1036,1 hPa 0,0 l/m 0 min 0 min 0 W/m 0,0 km/h (0 Bft) 96,43 %
18.01.2022 19:54 5,6 C 5,0 C 4,4 C 96 % 1036,2 hPa 0,0 l/m 0 min 0 min 0 W/m 0,0 km/h (0 Bft) 97,87 %
18.01.2022 19:56 5,6 C 5,0 C 3,9 C 96 % 1036,3 hPa 0,0 l/m 0 min 0 min 0 W/m 0,0 km/h (0 Bft) 97,83 %
18.01.2022 19:58 5,6 C 5,0 C 3,9 C 96 % 1036,4 hPa 0,0 l/m 0 min 0 min 0 W/m 0,0 km/h (0 Bft) 97,87 %
18.01.2022 20:00 5,6 C 5,0 C 3,9 C 96 % 1036,4 hPa 0,0 l/m 0 min 0 min 0 W/m 0,0 km/h (0 Bft) 97,87 %
18.01.2022 20:02 5,6 C 5,0 C 3,9 C 96 % 1036,4 hPa 0,0 l/m 0 min 0 min 0 W/m 0,0 km/h (0 Bft) 97,87 %
18.01.2022 20:04 5,6 C 5,0 C 3,9 C 96 % 1036,5 hPa 0,0 l/m 0 min 0 min 0 W/m 0,0 km/h (0 Bft) 100,00 %
18.01.2022 20:06 5,6 C 5,0 C 3,9 C 96 % 1036,4 hPa 0,0 l/m 0 min 0 min 0 W/m 0,0 km/h (0 Bft) 98,11 %
18.01.2022 20:08 5,6 C 5,0 C 3,9 C 96 % 1036,5 hPa 0,0 l/m 0 min 0 min 0 W/m 0,0 km/h (0 Bft) 100,00 %
18.01.2022 20:10 5,6 C 5,0 C 3,9 C 96 % 1036,4 hPa 0,0 l/m 0 min 0 min 0 W/m 0,0 km/h (0 Bft) 97,96 %
18.01.2022 20:12 5,6 C 5,0 C 3,9 C 96 % 1036,4 hPa 0,0 l/m 0 min 0 min 0 W/m 0,0 km/h (0 Bft) 97,87 %
18.01.2022 20:14 5,6 C 5,0 C 4,4 C 96 % 1036,4 hPa 0,0 l/m 0 min 0 min 0 W/m 0,0 km/h (0 Bft) 100,00 %
18.01.2022 20:16 5,6 C 5,0 C 4,4 C 96 % 1036,4 hPa 0,0 l/m 0 min 0 min 0 W/m 0,0 km/h (0 Bft) 100,00 %
18.01.2022 20:18 5,6 C 5,0 C 4,4 C 96 % 1036,4 hPa 0,0 l/m 0 min 0 min 0 W/m 0,0 km/h (0 Bft) 100,00 %
18.01.2022 20:20 5,6 C 5,0 C 4,4 C 96 % 1036,4 hPa 0,0 l/m 0 min 0 min 0 W/m 3,2 km/h (1 Bft) 100,00 %
18.01.2022 20:22 5,6 C 5,0 C 4,4 C 96 % 1036,3 hPa 0,0 l/m 0 min 0 min 0 W/m 0,0 km/h (0 Bft) 100,00 %
18.01.2022 20:24 5,6 C 5,0 C 4,4 C 96 % 1036,3 hPa 0,0 l/m 0 min 0 min 0 W/m 3,2 km/h (1 Bft) 100,00 %
18.01.2022 20:26 5,6 C 5,0 C 4,4 C 96 % 1036,3 hPa 0,0 l/m 0 min 0 min 0 W/m 3,2 km/h (1 Bft) 100,00 %
18.01.2022 20:28 5,7 C 5,0 C 4,4 C 96 % 1036,3 hPa 0,0 l/m 0 min 0 min 0 W/m 0,0 km/h (0 Bft) 97,87 %
18.01.2022 20:30 5,7 C 5,0 C 4,4 C 96 % 1036,3 hPa 0,0 l/m 0 min 0 min 0 W/m 3,2 km/h (1 Bft) 100,00 %
18.01.2022 20:32 5,7 C 5,0 C 4,4 C 96 % 1036,2 hPa 0,0 l/m 0 min 0 min 0 W/m 3,2 km/h (1 Bft) 100,00 %
18.01.2022 20:34 5,7 C 5,0 C 4,4 C 96 % 1036,3 hPa 0,0 l/m 0 min 0 min 0 W/m 3,2 km/h (1 Bft) 100,00 %
18.01.2022 20:36 5,7 C 5,0 C 4,4 C 96 % 1036,2 hPa 0,0 l/m 0 min 0 min 0 W/m 3,2 km/h (1 Bft) 97,87 %
18.01.2022 20:38 5,7 C 5,0 C 4,4 C 96 % 1036,2 hPa 0,0 l/m 0 min 0 min 0 W/m 3,2 km/h (1 Bft) 97,87 %
18.01.2022 20:40 5,7 C 5,0 C 4,4 C 96 % 1036,1 hPa 0,0 l/m 0 min 0 min 0 W/m 3,2 km/h (1 Bft) 97,87 %
18.01.2022 20:42 5,6 C 5,0 C 4,4 C 96 % 1036,1 hPa 0,0 l/m 0 min 0 min 0 W/m 0,0 km/h (0 Bft) 95,74 %
18.01.2022 20:44 5,6 C 5,0 C 4,4 C 96 % 1036,1 hPa 0,0 l/m 0 min 0 min 0 W/m 3,2 km/h (1 Bft) 93,88 %
18.01.2022 20:46 5,6 C 5,0 C 4,4 C 96 % 1036,1 hPa 0,0 l/m 0 min 0 min 0 W/m 0,0 km/h (0 Bft) 97,87 %
18.01.2022 20:48 5,6 C 5,0 C 3,9 C 96 % 1036,0 hPa 0,0 l/m 0 min 0 min 0 W/m 0,0 km/h (0 Bft) 95,74 %
18.01.2022 20:50 5,6 C 5,0 C 3,9 C 96 % 1036,0 hPa 0,0 l/m 0 min 0 min 0 W/m 3,2 km/h (1 Bft) 100,00 %
18.01.2022 20:52 5,6 C 5,0 C 3,9 C 96 % 1036,0 hPa 0,0 l/m 0 min 0 min 0 W/m 0,0 km/h (0 Bft) 100,00 %
18.01.2022 20:54 5,6 C 5,0 C 3,9 C 96 % 1036,0 hPa 0,0 l/m 0 min 0 min 0 W/m 3,2 km/h (1 Bft) 100,00 %
18.01.2022 20:56 5,5 C 4,4 C 3,9 C 96 % 1036,0 hPa 0,0 l/m 0 min 0 min 0 W/m 0,0 km/h (0 Bft) 97,83 %
18.01.2022 20:58 5,5 C 4,4 C 3,9 C 96 % 1036,0 hPa 0,0 l/m 0 min 0 min 0 W/m 0,0 km/h (0 Bft) 94,00 %
18.01.2022 21:00 5,4 C 4,4 C 3,9 C 96 % 1036,0 hPa 0,0 l/m 0 min 0 min 0 W/m 0,0 km/h (0 Bft) 96,00 %
18.01.2022 21:02 5,4 C 4,4 C 3,3 C 96 % 1036,0 hPa 0,0 l/m 0 min 0 min 0 W/m 0,0 km/h (0 Bft) 94,29 %
18.01.2022 21:04 5,4 C 4,4 C 3,3 C 96 % 1036,0 hPa 0,0 l/m 0 min 0 min 0 W/m 3,2 km/h (1 Bft) 93,62 %
18.01.2022 21:06 5,4 C 4,4 C 3,3 C 96 % 1036,0 hPa 0,0 l/m 0 min 0 min 0 W/m 0,0 km/h (0 Bft) 94,34 %
18.01.2022 21:08 5,3 C 4,4 C 3,3 C 96 % 1035,9 hPa 0,0 l/m 0 min 0 min 0 W/m 0,0 km/h (0 Bft) 93,48 %
18.01.2022 21:10 5,3 C 4,4 C 3,3 C 96 % 1035,8 hPa 0,0 l/m 0 min 0 min 0 W/m 3,2 km/h (1 Bft) 95,74 %
18.01.2022 21:12 5,3 C 4,4 C 3,3 C 96 % 1035,8 hPa 0,0 l/m 0 min 0 min 0 W/m 0,0 km/h (0 Bft) 93,62 %
18.01.2022 21:14 5,3 C 4,4 C 3,3 C 95 % 1035,8 hPa 0,0 l/m 0 min 0 min 0 W/m 0,0 km/h (0 Bft) 92,00 %
18.01.2022 21:16 5,2 C 3,9 C 3,3 C 95 % 1035,7 hPa 0,0 l/m 0 min 0 min 0 W/m 0,0 km/h (0 Bft) 93,62 %
18.01.2022 21:18 5,2 C 3,9 C 3,3 C 95 % 1035,7 hPa 0,0 l/m 0 min 0 min 0 W/m 0,0 km/h (0 Bft) 95,65 %
18.01.2022 21:20 5,2 C 3,9 C 2,8 C 95 % 1035,7 hPa 0,0 l/m 0 min 0 min 0 W/m 0,0 km/h (0 Bft) 97,87 %
18.01.2022 21:22 5,1 C 3,9 C 2,8 C 95 % 1035,6 hPa 0,0 l/m 0 min 0 min 0 W/m 0,0 km/h (0 Bft) 95,74 %
18.01.2022 21:24 5,1 C 3,3 C 2,8 C 95 % 1035,6 hPa 0,0 l/m 0 min 0 min 0 W/m 0,0 km/h (0 Bft) 96,00 %
18.01.2022 21:26 5,0 C 3,3 C 2,8 C 95 % 1035,6 hPa 0,0 l/m 0 min 0 min 0 W/m 0,0 km/h (0 Bft) 97,14 %
18.01.2022 21:28 4,9 C 3,3 C 2,8 C 95 % 1035,5 hPa 0,0 l/m 0 min 0 min 0 W/m 3,2 km/h (1 Bft) 94,64 %
18.01.2022 21:30 4,9 C 3,3 C 2,8 C 95 % 1035,5 hPa 0,0 l/m 0 min 0 min 0 W/m 0,0 km/h (0 Bft) 95,65 %
18.01.2022 21:32 4,8 C 3,3 C 2,8 C 95 % 1035,4 hPa 0,0 l/m 0 min 0 min 0 W/m 3,2 km/h (1 Bft) 95,74 %
18.01.2022 21:34 4,7 C 3,3 C 2,8 C 95 % 1035,4 hPa 0,0 l/m 0 min 0 min 0 W/m 0,0 km/h (0 Bft) 95,74 %
18.01.2022 21:36 4,7 C 3,3 C 2,2 C 95 % 1035,3 hPa 0,0 l/m 0 min 0 min 0 W/m 0,0 km/h (0 Bft) 95,74 %
18.01.2022 21:38 4,7 C 2,8 C 2,2 C 95 % 1035,3 hPa 0,0 l/m 0 min 0 min 0 W/m 0,0 km/h (0 Bft) 94,00 %
18.01.2022 21:40 4,6 C 2,8 C 2,2 C 95 % 1035,3 hPa 0,0 l/m 0 min 0 min 0 W/m 3,2 km/h (1 Bft) 95,74 %
18.01.2022 21:42 4,6 C 2,8 C 2,2 C 94 % 1035,3 hPa 0,0 l/m 0 min 0 min 0 W/m 0,0 km/h (0 Bft) 94,29 %
18.01.2022 21:44 4,5 C 2,8 C 2,2 C 94 % 1035,3 hPa 0,0 l/m 0 min 0 min 0 W/m 0,0 km/h (0 Bft) 94,23 %
18.01.2022 21:46 4,4 C 2,8 C 2,2 C 94 % 1035,3 hPa 0,0 l/m 0 min 0 min 0 W/m 0,0 km/h (0 Bft) 95,12 %
18.01.2022 21:48 4,4 C 2,8 C 2,2 C 94 % 1035,4 hPa 0,0 l/m 0 min 0 min 0 W/m 0,0 km/h (0 Bft) 98,11 %
18.01.2022 21:50 4,3 C 2,8 C 2,2 C 94 % 1035,4 hPa 0,0 l/m 0 min 0 min 0 W/m 0,0 km/h (0 Bft) 96,00 %
18.01.2022 21:52 4,3 C 2,8 C 2,2 C 94 % 1035,5 hPa 0,0 l/m 0 min 0 min 0 W/m 0,0 km/h (0 Bft) 100,00 %
18.01.2022 21:54 4,2 C 2,8 C 1,7 C 94 % 1035,5 hPa 0,0 l/m 0 min 0 min 0 W/m 0,0 km/h (0 Bft) 100,00 %
18.01.2022 21:56 4,2 C 2,2 C 1,7 C 94 % 1035,5 hPa 0,0 l/m 0 min 0 min 0 W/m 0,0 km/h (0 Bft) 97,87 %
18.01.2022 21:58 4,1 C 2,2 C 1,7 C 94 % 1035,5 hPa 0,0 l/m 0 min 0 min 0 W/m 0,0 km/h (0 Bft) 98,00 %
18.01.2022 22:00 4,1 C 2,2 C 1,7 C 94 % 1035,5 hPa 0,0 l/m 0 min 0 min 0 W/m 0,0 km/h (0 Bft) 100,00 %
18.01.2022 22:02 4,1 C 2,2 C 1,7 C 94 % 1035,6 hPa 0,0 l/m 0 min 0 min 0 W/m 0,0 km/h (0 Bft) 98,00 %
18.01.2022 22:04 4,1 C 2,2 C 1,7 C 94 % 1035,5 hPa 0,0 l/m 0 min 0 min 0 W/m 0,0 km/h (0 Bft) 97,56 %
18.01.2022 22:06 4,0 C 2,2 C 1,7 C 94 % 1035,4 hPa 0,0 l/m 0 min 0 min 0 W/m 0,0 km/h (0 Bft) 100,00 %
18.01.2022 22:08 3,9 C 2,2 C 1,7 C 94 % 1035,3 hPa 0,0 l/m 0 min 0 min 0 W/m 0,0 km/h (0 Bft) 100,00 %
18.01.2022 22:10 3,9 C 2,2 C 1,7 C 94 % 1035,3 hPa 0,0 l/m 0 min 0 min 0 W/m 0,0 km/h (0 Bft) 100,00 %
18.01.2022 22:12 3,8 C 2,2 C 1,7 C 94 % 1035,2 hPa 0,0 l/m 0 min 0 min 0 W/m 0,0 km/h (0 Bft) 100,00 %
18.01.2022 22:14 3,8 C 2,2 C 1,7 C 94 % 1035,1 hPa 0,0 l/m 0 min 0 min 0 W/m 0,0 km/h (0 Bft) 100,00 %
18.01.2022 22:16 3,8 C 2,2 C 1,7 C 94 % 1035,1 hPa 0,0 l/m 0 min 0 min 0 W/m 0,0 km/h (0 Bft) 100,00 %
18.01.2022 22:18 3,7 C 2,2 C 1,7 C 94 % 1035,1 hPa 0,0 l/m 0 min 0 min 0 W/m 0,0 km/h (0 Bft) 97,37 %
18.01.2022 22:20 3,7 C 2,2 C 1,7 C 94 % 1035,1 hPa 0,0 l/m 0 min 0 min 0 W/m 0,0 km/h (0 Bft) 100,00 %
18.01.2022 22:22 3,6 C 2,2 C 1,7 C 94 % 1035,1 hPa 0,0 l/m 0 min 0 min 0 W/m 0,0 km/h (0 Bft) 100,00 %
18.01.2022 22:24 3,6 C 2,2 C 1,7 C 94 % 1035,1 hPa 0,0 l/m 0 min 0 min 0 W/m 0,0 km/h (0 Bft) 100,00 %
18.01.2022 22:26 3,6 C 2,2 C 1,7 C 94 % 1035,2 hPa 0,0 l/m 0 min 0 min 0 W/m 0,0 km/h (0 Bft) 100,00 %
18.01.2022 22:28 3,6 C 2,2 C 1,7 C 94 % 1035,1 hPa 0,0 l/m 0 min 0 min 0 W/m 0,0 km/h (0 Bft) 100,00 %
18.01.2022 22:30 3,6 C 2,2 C 1,7 C 94 % 1035,1 hPa 0,0 l/m 0 min 0 min 0 W/m 0,0 km/h (0 Bft) 97,87 %
18.01.2022 22:32 3,6 C 2,2 C 1,7 C 94 % 1035,0 hPa 0,0 l/m 0 min 0 min 0 W/m 0,0 km/h (0 Bft) 100,00 %
18.01.2022 22:34 3,5 C 2,2 C 1,7 C 94 % 1035,0 hPa 0,0 l/m 0 min 0 min 0 W/m 0,0 km/h (0 Bft) 100,00 %
18.01.2022 22:36 3,5 C 2,8 C 1,7 C 94 % 1035,0 hPa 0,0 l/m 0 min 0 min 0 W/m 0,0 km/h (0 Bft) 100,00 %
18.01.2022 22:38 3,5 C 2,8 C 1,7 C 94 % 1035,0 hPa 0,0 l/m 0 min 0 min 0 W/m 0,0 km/h (0 Bft) 96,00 %
18.01.2022 22:40 3,5 C 2,8 C 1,7 C 94 % 1035,0 hPa 0,0 l/m 0 min 0 min 0 W/m 0,0 km/h (0 Bft) 100,00 %
18.01.2022 22:42 3,4 C 2,2 C 1,7 C 94 % 1035,0 hPa 0,0 l/m 0 min 0 min 0 W/m 0,0 km/h (0 Bft) 100,00 %
18.01.2022 22:44 3,4 C 2,2 C 1,7 C 94 % 1035,0 hPa 0,0 l/m 0 min 0 min 0 W/m 0,0 km/h (0 Bft) 97,87 %
18.01.2022 22:46 3,4 C 2,2 C 1,7 C 94 % 1034,9 hPa 0,0 l/m 0 min 0 min 0 W/m 3,2 km/h (1 Bft) 97,73 %
18.01.2022 22:48 3,4 C 2,2 C 1,7 C 94 % 1034,9 hPa 0,0 l/m 0 min 0 min 0 W/m 0,0 km/h (0 Bft) 97,87 %
18.01.2022 22:50 3,4 C 2,2 C 1,7 C 94 % 1034,9 hPa 0,0 l/m 0 min 0 min 0 W/m 0,0 km/h (0 Bft) 97,87 %
18.01.2022 22:52 3,3 C 2,2 C 1,7 C 94 % 1034,9 hPa 0,0 l/m 0 min 0 min 0 W/m 0,0 km/h (0 Bft) 97,96 %
18.01.2022 22:54 3,3 C 2,2 C 1,1 C 94 % 1034,9 hPa 0,0 l/m 0 min 0 min 0 W/m 0,0 km/h (0 Bft) 97,87 %
18.01.2022 22:56 3,3 C 1,7 C 1,1 C 94 % 1034,9 hPa 0,0 l/m 0 min 0 min 0 W/m 3,2 km/h (1 Bft) 95,74 %
18.01.2022 22:58 3,3 C 1,7 C 1,1 C 94 % 1034,8 hPa 0,0 l/m 0 min 0 min 0 W/m 0,0 km/h (0 Bft) 96,00 %
18.01.2022 23:00 3,2 C 1,7 C 1,1 C 94 % 1034,7 hPa 0,0 l/m 0 min 0 min 0 W/m 3,2 km/h (1 Bft) 97,87 %
18.01.2022 23:02 3,2 C 1,7 C 1,1 C 94 % 1034,6 hPa 0,0 l/m 0 min 0 min 0 W/m 3,2 km/h (1 Bft) 92,11 %
18.01.2022 23:04 3,2 C 1,7 C 1,1 C 94 % 1034,5 hPa 0,0 l/m 0 min 0 min 0 W/m 3,2 km/h (1 Bft) 95,92 %
18.01.2022 23:06 3,2 C 1,7 C 1,1 C 94 % 1034,5 hPa 0,0 l/m 0 min 0 min 0 W/m 3,2 km/h (1 Bft) 93,62 %
18.01.2022 23:08 3,1 C 1,7 C 1,1 C 94 % 1034,4 hPa 0,0 l/m 0 min 0 min 0 W/m 0,0 km/h (0 Bft) 93,62 %
18.01.2022 23:10 3,1 C 1,7 C 1,1 C 94 % 1034,4 hPa 0,0 l/m 0 min 0 min 0 W/m 0,0 km/h (0 Bft) 92,59 %
18.01.2022 23:12 3,1 C 1,7 C 1,1 C 94 % 1034,4 hPa 0,0 l/m 0 min 0 min 0 W/m 3,2 km/h (1 Bft) 95,74 %
18.01.2022 23:14 3,1 C 1,7 C 1,1 C 94 % 1034,4 hPa 0,0 l/m 0 min 0 min 0 W/m 6,4 km/h (2 Bft) 95,92 %
18.01.2022 23:16 3,1 C 2,2 C 1,1 C 94 % 1034,4 hPa 0,0 l/m 0 min 0 min 0 W/m 3,2 km/h (1 Bft) 95,74 %
18.01.2022 23:18 3,1 C 2,2 C 1,7 C 94 % 1034,4 hPa 0,0 l/m 0 min 0 min 0 W/m 3,2 km/h (1 Bft) 94,59 %
18.01.2022 23:20 3,1 C 2,2 C 1,7 C 95 % 1034,4 hPa 0,0 l/m 0 min 0 min 0 W/m 3,2 km/h (1 Bft) 97,87 %
18.01.2022 23:22 3,1 C 2,2 C 1,7 C 95 % 1034,3 hPa 0,0 l/m 0 min 0 min 0 W/m 3,2 km/h (1 Bft) 97,87 %
18.01.2022 23:24 3,1 C 2,2 C 1,7 C 95 % 1034,4 hPa 0,0 l/m 0 min 0 min 0 W/m 3,2 km/h (1 Bft) 98,15 %
18.01.2022 23:26 3,1 C 2,2 C 1,7 C 95 % 1034,3 hPa 0,0 l/m 0 min 0 min 0 W/m 3,2 km/h (1 Bft) 95,65 %
18.01.2022 23:28 3,1 C 2,2 C 1,7 C 95 % 1034,3 hPa 0,0 l/m 0 min 0 min 0 W/m 3,2 km/h (1 Bft) 97,87 %
18.01.2022 23:30 3,1 C 2,2 C 1,7 C 95 % 1034,2 hPa 0,0 l/m 0 min 0 min 0 W/m 3,2 km/h (1 Bft) 98,00 %
18.01.2022 23:32 3,1 C 2,2 C 1,7 C 95 % 1034,2 hPa 0,0 l/m 0 min 0 min 0 W/m 3,2 km/h (1 Bft) 97,87 %
18.01.2022 23:34 3,1 C 2,2 C 1,7 C 95 % 1034,1 hPa 0,0 l/m 0 min 0 min 0 W/m 3,2 km/h (1 Bft) 100,00 %
18.01.2022 23:36 3,1 C 1,7 C 1,1 C 95 % 1034,1 hPa 0,0 l/m 0 min 0 min 0 W/m 0,0 km/h (0 Bft) 100,00 %
18.01.2022 23:38 3,1 C 1,7 C 1,1 C 95 % 1034,1 hPa 0,0 l/m 0 min 0 min 0 W/m 0,0 km/h (0 Bft) 100,00 %
18.01.2022 23:40 3,0 C 1,7 C 1,1 C 95 % 1034,1 hPa 0,0 l/m 0 min 0 min 0 W/m 0,0 km/h (0 Bft) 100,00 %
18.01.2022 23:42 3,0 C 1,7 C 1,1 C 95 % 1034,2 hPa 0,0 l/m 0 min 0 min 0 W/m 0,0 km/h (0 Bft) 100,00 %
18.01.2022 23:44 2,9 C 1,7 C 1,1 C 95 % 1034,0 hPa 0,0 l/m 0 min 0 min 0 W/m 0,0 km/h (0 Bft) 100,00 %
18.01.2022 23:46 2,9 C 1,1 C 1,1 C 95 % 1034,0 hPa 0,0 l/m 0 min 0 min 0 W/m 3,2 km/h (1 Bft) 100,00 %
18.01.2022 23:48 2,9 C 1,1 C 1,1 C 95 % 1033,9 hPa 0,0 l/m 0 min 0 min 0 W/m 0,0 km/h (0 Bft) 100,00 %
18.01.2022 23:50 2,9 C 1,1 C 1,1 C 95 % 1033,9 hPa 0,0 l/m 0 min 0 min 0 W/m 0,0 km/h (0 Bft) 100,00 %
18.01.2022 23:52 2,8 C 1,1 C 1,1 C 95 % 1033,9 hPa 0,0 l/m 0 min 0 min 0 W/m 0,0 km/h (0 Bft) 100,00 %
18.01.2022 23:54 2,8 C 1,1 C 0,6 C 95 % 1033,8 hPa 0,0 l/m 0 min 0 min 0 W/m 0,0 km/h (0 Bft) 100,00 %
18.01.2022 23:56 2,8 C 1,1 C 0,6 C 95 % 1033,8 hPa 0,0 l/m 0 min 0 min 0 W/m 0,0 km/h (0 Bft) 100,00 %
18.01.2022 23:58 2,7 C 1,1 C 0,6 C 95 % 1033,8 hPa 0,0 l/m 0 min 0 min 0 W/m 0,0 km/h (0 Bft) 100,00 %
_ Min-Zeit 23:58 23:46 23:54 14:12 23:54 - - - - 03:24 06:44
Minimum _ 2,7 C 1,1 C 0,6 C 90 % 1033,8 hPa - - - - 0,0 km/h (0 Bft) 42,86 %
_ Max-Zeit 13:36 13:18 13:14 09:02 11:10 00:00 11:22 00:00 13:18 00:50 00:00
Maximum _ 8,8 C 20,0 C 7,8 C 99 % 1039,6 hPa 0,0 l/m 2 min 0 min 378 W/m 12,9 km/h
N (3 Bft)
100,00 %
Durchschnitt _ 5,9 C 5,5 C 4,6 C 96 % 1037,7 hPa #0,0 l/m #1:20 h #0 min. 96 W/m 2,6 km/h (1 Bft) 97,24 %
© 2022 W. Hausmann